<?xml version="1.0" encoding="UTF-8" standalone="no" ?>
<gpx xmlns="http://www.topografix.com/GPX/1/1" xmlns:xsi="http://www.w3.org/2001/XMLSchema-instance" xsi:schemaLocation="http://www.topografix.com/GPX/1/1 http://www.topografix.com/GPX/1/1/gpx.xsd" version="1.1" creator="VisuGPX - https://www.visugpx.com">
  <metadata>
    <name>Session 1 2015</name>
    <desc><![CDATA[1ere sortie 2015, sur chemins propres.
]]></desc>
  </metadata>
  <trk>
    <name><![CDATA[2015-01-07 Session VTT]]></name>
    <trkseg>
      <trkpt lat="50.12915" lon="3.68124">
        <ele>148.66</ele>
        <time>2015-01-07T08:06:48Z</time>
      </trkpt>
      <trkpt lat="50.12913" lon="3.68116">
        <ele>148.18</ele>
        <time>2015-01-07T08:06:49Z</time>
      </trkpt>
      <trkpt lat="50.12909" lon="3.68097">
        <ele>148.18</ele>
        <time>2015-01-07T08:06:52Z</time>
      </trkpt>
      <trkpt lat="50.12905" lon="3.68043">
        <ele>149.62</ele>
        <time>2015-01-07T08:07:00Z</time>
      </trkpt>
      <trkpt lat="50.12902" lon="3.68022">
        <ele>149.62</ele>
        <time>2015-01-07T08:07:04Z</time>
      </trkpt>
      <trkpt lat="50.12899" lon="3.68018">
        <ele>148.18</ele>
        <time>2015-01-07T08:07:05Z</time>
      </trkpt>
      <trkpt lat="50.12895" lon="3.68014">
        <ele>148.18</ele>
        <time>2015-01-07T08:07:06Z</time>
      </trkpt>
      <trkpt lat="50.1289" lon="3.68013">
        <ele>148.18</ele>
        <time>2015-01-07T08:07:07Z</time>
      </trkpt>
      <trkpt lat="50.12886" lon="3.68013">
        <ele>148.18</ele>
        <time>2015-01-07T08:07:08Z</time>
      </trkpt>
      <trkpt lat="50.12882" lon="3.68015">
        <ele>147.7</ele>
        <time>2015-01-07T08:07:09Z</time>
      </trkpt>
      <trkpt lat="50.12877" lon="3.68017">
        <ele>147.7</ele>
        <time>2015-01-07T08:07:10Z</time>
      </trkpt>
      <trkpt lat="50.12829" lon="3.68046">
        <ele>145.3</ele>
        <time>2015-01-07T08:07:19Z</time>
      </trkpt>
      <trkpt lat="50.12825" lon="3.68052">
        <ele>145.3</ele>
        <time>2015-01-07T08:07:20Z</time>
      </trkpt>
      <trkpt lat="50.12821" lon="3.68058">
        <ele>144.82</ele>
        <time>2015-01-07T08:07:21Z</time>
      </trkpt>
      <trkpt lat="50.12819" lon="3.68066">
        <ele>145.3</ele>
        <time>2015-01-07T08:07:22Z</time>
      </trkpt>
      <trkpt lat="50.12818" lon="3.68074">
        <ele>144.82</ele>
        <time>2015-01-07T08:07:23Z</time>
      </trkpt>
      <trkpt lat="50.12819" lon="3.68081">
        <ele>144.82</ele>
        <time>2015-01-07T08:07:24Z</time>
      </trkpt>
      <trkpt lat="50.12822" lon="3.68088">
        <ele>144.82</ele>
        <time>2015-01-07T08:07:25Z</time>
      </trkpt>
      <trkpt lat="50.12825" lon="3.68095">
        <ele>144.82</ele>
        <time>2015-01-07T08:07:26Z</time>
      </trkpt>
      <trkpt lat="50.12864" lon="3.68182">
        <ele>145.3</ele>
        <time>2015-01-07T08:07:39Z</time>
      </trkpt>
      <trkpt lat="50.12879" lon="3.68249">
        <ele>145.3</ele>
        <time>2015-01-07T08:07:48Z</time>
      </trkpt>
      <trkpt lat="50.12912" lon="3.68369">
        <ele>146.26</ele>
        <time>2015-01-07T08:08:05Z</time>
      </trkpt>
      <trkpt lat="50.12953" lon="3.68493">
        <ele>146.26</ele>
        <time>2015-01-07T08:08:22Z</time>
      </trkpt>
      <trkpt lat="50.13001" lon="3.68589">
        <ele>146.26</ele>
        <time>2015-01-07T08:08:36Z</time>
      </trkpt>
      <trkpt lat="50.13054" lon="3.68699">
        <ele>146.74</ele>
        <time>2015-01-07T08:08:54Z</time>
      </trkpt>
      <trkpt lat="50.13093" lon="3.68786">
        <ele>149.14</ele>
        <time>2015-01-07T08:09:11Z</time>
      </trkpt>
      <trkpt lat="50.13117" lon="3.68827">
        <ele>150.1</ele>
        <time>2015-01-07T08:09:20Z</time>
      </trkpt>
      <trkpt lat="50.13176" lon="3.68911">
        <ele>152.99</ele>
        <time>2015-01-07T08:09:39Z</time>
      </trkpt>
      <trkpt lat="50.13229" lon="3.68989">
        <ele>154.43</ele>
        <time>2015-01-07T08:09:56Z</time>
      </trkpt>
      <trkpt lat="50.13281" lon="3.69062">
        <ele>154.91</ele>
        <time>2015-01-07T08:10:12Z</time>
      </trkpt>
      <trkpt lat="50.13323" lon="3.69168">
        <ele>155.39</ele>
        <time>2015-01-07T08:10:29Z</time>
      </trkpt>
      <trkpt lat="50.13349" lon="3.69267">
        <ele>157.79</ele>
        <time>2015-01-07T08:10:46Z</time>
      </trkpt>
      <trkpt lat="50.13383" lon="3.69384">
        <ele>159.72</ele>
        <time>2015-01-07T08:11:07Z</time>
      </trkpt>
      <trkpt lat="50.13418" lon="3.69493">
        <ele>159.24</ele>
        <time>2015-01-07T08:11:24Z</time>
      </trkpt>
      <trkpt lat="50.13451" lon="3.69579">
        <ele>159.24</ele>
        <time>2015-01-07T08:11:36Z</time>
      </trkpt>
      <trkpt lat="50.13507" lon="3.69696">
        <ele>158.75</ele>
        <time>2015-01-07T08:11:54Z</time>
      </trkpt>
      <trkpt lat="50.13545" lon="3.69829">
        <ele>157.79</ele>
        <time>2015-01-07T08:12:11Z</time>
      </trkpt>
      <trkpt lat="50.1357" lon="3.69928">
        <ele>157.79</ele>
        <time>2015-01-07T08:12:25Z</time>
      </trkpt>
      <trkpt lat="50.13608" lon="3.70049">
        <ele>157.79</ele>
        <time>2015-01-07T08:12:43Z</time>
      </trkpt>
      <trkpt lat="50.13644" lon="3.70126">
        <ele>155.87</ele>
        <time>2015-01-07T08:12:54Z</time>
      </trkpt>
      <trkpt lat="50.13647" lon="3.70136">
        <ele>155.39</ele>
        <time>2015-01-07T08:12:55Z</time>
      </trkpt>
      <trkpt lat="50.1365" lon="3.70146">
        <ele>154.91</ele>
        <time>2015-01-07T08:12:56Z</time>
      </trkpt>
      <trkpt lat="50.13663" lon="3.70212">
        <ele>152.51</ele>
        <time>2015-01-07T08:13:02Z</time>
      </trkpt>
      <trkpt lat="50.13686" lon="3.70294">
        <ele>149.14</ele>
        <time>2015-01-07T08:13:09Z</time>
      </trkpt>
      <trkpt lat="50.13725" lon="3.70465">
        <ele>147.22</ele>
        <time>2015-01-07T08:13:25Z</time>
      </trkpt>
      <trkpt lat="50.13733" lon="3.70564">
        <ele>147.7</ele>
        <time>2015-01-07T08:13:38Z</time>
      </trkpt>
      <trkpt lat="50.13734" lon="3.70568">
        <ele>147.7</ele>
        <time>2015-01-07T08:13:39Z</time>
      </trkpt>
      <trkpt lat="50.13742" lon="3.70605">
        <ele>148.18</ele>
        <time>2015-01-07T08:13:47Z</time>
      </trkpt>
      <trkpt lat="50.13756" lon="3.70648">
        <ele>148.18</ele>
        <time>2015-01-07T08:13:54Z</time>
      </trkpt>
      <trkpt lat="50.13758" lon="3.70654">
        <ele>148.18</ele>
        <time>2015-01-07T08:13:55Z</time>
      </trkpt>
      <trkpt lat="50.13761" lon="3.70659">
        <ele>148.18</ele>
        <time>2015-01-07T08:13:56Z</time>
      </trkpt>
      <trkpt lat="50.13796" lon="3.70738">
        <ele>149.14</ele>
        <time>2015-01-07T08:14:09Z</time>
      </trkpt>
      <trkpt lat="50.13799" lon="3.70766">
        <ele>149.14</ele>
        <time>2015-01-07T08:14:13Z</time>
      </trkpt>
      <trkpt lat="50.13799" lon="3.70773">
        <ele>149.14</ele>
        <time>2015-01-07T08:14:14Z</time>
      </trkpt>
      <trkpt lat="50.13793" lon="3.70822">
        <ele>149.14</ele>
        <time>2015-01-07T08:14:21Z</time>
      </trkpt>
      <trkpt lat="50.13791" lon="3.70836">
        <ele>149.14</ele>
        <time>2015-01-07T08:14:23Z</time>
      </trkpt>
      <trkpt lat="50.13792" lon="3.70843">
        <ele>149.14</ele>
        <time>2015-01-07T08:14:24Z</time>
      </trkpt>
      <trkpt lat="50.13792" lon="3.7085">
        <ele>149.14</ele>
        <time>2015-01-07T08:14:25Z</time>
      </trkpt>
      <trkpt lat="50.13794" lon="3.70858">
        <ele>149.14</ele>
        <time>2015-01-07T08:14:26Z</time>
      </trkpt>
      <trkpt lat="50.13795" lon="3.70865">
        <ele>149.14</ele>
        <time>2015-01-07T08:14:27Z</time>
      </trkpt>
      <trkpt lat="50.13814" lon="3.70933">
        <ele>148.18</ele>
        <time>2015-01-07T08:14:36Z</time>
      </trkpt>
      <trkpt lat="50.13836" lon="3.70983">
        <ele>144.82</ele>
        <time>2015-01-07T08:14:42Z</time>
      </trkpt>
      <trkpt lat="50.13873" lon="3.71073">
        <ele>141.93</ele>
        <time>2015-01-07T08:14:51Z</time>
      </trkpt>
      <trkpt lat="50.13916" lon="3.71156">
        <ele>141.45</ele>
        <time>2015-01-07T08:15:01Z</time>
      </trkpt>
      <trkpt lat="50.13918" lon="3.71163">
        <ele>141.45</ele>
        <time>2015-01-07T08:15:02Z</time>
      </trkpt>
      <trkpt lat="50.13918" lon="3.71171">
        <ele>140.97</ele>
        <time>2015-01-07T08:15:03Z</time>
      </trkpt>
      <trkpt lat="50.13916" lon="3.71177">
        <ele>140.49</ele>
        <time>2015-01-07T08:15:04Z</time>
      </trkpt>
      <trkpt lat="50.13913" lon="3.71184">
        <ele>140.49</ele>
        <time>2015-01-07T08:15:05Z</time>
      </trkpt>
      <trkpt lat="50.1391" lon="3.7119">
        <ele>140.01</ele>
        <time>2015-01-07T08:15:06Z</time>
      </trkpt>
      <trkpt lat="50.13902" lon="3.71204">
        <ele>140.01</ele>
        <time>2015-01-07T08:15:08Z</time>
      </trkpt>
      <trkpt lat="50.13871" lon="3.71269">
        <ele>140.01</ele>
        <time>2015-01-07T08:15:18Z</time>
      </trkpt>
      <trkpt lat="50.13868" lon="3.71276">
        <ele>140.01</ele>
        <time>2015-01-07T08:15:19Z</time>
      </trkpt>
      <trkpt lat="50.13835" lon="3.71372">
        <ele>139.05</ele>
        <time>2015-01-07T08:15:32Z</time>
      </trkpt>
      <trkpt lat="50.13804" lon="3.7151">
        <ele>138.09</ele>
        <time>2015-01-07T08:15:50Z</time>
      </trkpt>
      <trkpt lat="50.13784" lon="3.71626">
        <ele>138.09</ele>
        <time>2015-01-07T08:16:05Z</time>
      </trkpt>
      <trkpt lat="50.13774" lon="3.71675">
        <ele>138.09</ele>
        <time>2015-01-07T08:16:12Z</time>
      </trkpt>
      <trkpt lat="50.13774" lon="3.71682">
        <ele>138.09</ele>
        <time>2015-01-07T08:16:13Z</time>
      </trkpt>
      <trkpt lat="50.13775" lon="3.71688">
        <ele>138.09</ele>
        <time>2015-01-07T08:16:14Z</time>
      </trkpt>
      <trkpt lat="50.13778" lon="3.71691">
        <ele>138.09</ele>
        <time>2015-01-07T08:16:15Z</time>
      </trkpt>
      <trkpt lat="50.13781" lon="3.71691">
        <ele>138.09</ele>
        <time>2015-01-07T08:16:16Z</time>
      </trkpt>
      <trkpt lat="50.13785" lon="3.71691">
        <ele>138.09</ele>
        <time>2015-01-07T08:16:17Z</time>
      </trkpt>
      <trkpt lat="50.13847" lon="3.71693">
        <ele>138.09</ele>
        <time>2015-01-07T08:16:32Z</time>
      </trkpt>
      <trkpt lat="50.1391" lon="3.71739">
        <ele>137.61</ele>
        <time>2015-01-07T08:16:46Z</time>
      </trkpt>
      <trkpt lat="50.13921" lon="3.71755">
        <ele>137.61</ele>
        <time>2015-01-07T08:16:49Z</time>
      </trkpt>
      <trkpt lat="50.1396" lon="3.7183">
        <ele>137.61</ele>
        <time>2015-01-07T08:17:02Z</time>
      </trkpt>
      <trkpt lat="50.14012" lon="3.71882">
        <ele>139.05</ele>
        <time>2015-01-07T08:17:16Z</time>
      </trkpt>
      <trkpt lat="50.1403" lon="3.71913">
        <ele>139.05</ele>
        <time>2015-01-07T08:17:24Z</time>
      </trkpt>
      <trkpt lat="50.14029" lon="3.71917">
        <ele>139.53</ele>
        <time>2015-01-07T08:17:25Z</time>
      </trkpt>
      <trkpt lat="50.14027" lon="3.7192">
        <ele>139.53</ele>
        <time>2015-01-07T08:17:26Z</time>
      </trkpt>
      <trkpt lat="50.14023" lon="3.71938">
        <ele>139.53</ele>
        <time>2015-01-07T08:17:30Z</time>
      </trkpt>
      <trkpt lat="50.14024" lon="3.71943">
        <ele>139.53</ele>
        <time>2015-01-07T08:17:31Z</time>
      </trkpt>
      <trkpt lat="50.14027" lon="3.71948">
        <ele>139.53</ele>
        <time>2015-01-07T08:17:32Z</time>
      </trkpt>
      <trkpt lat="50.14031" lon="3.71952">
        <ele>139.53</ele>
        <time>2015-01-07T08:17:33Z</time>
      </trkpt>
      <trkpt lat="50.14035" lon="3.71956">
        <ele>138.09</ele>
        <time>2015-01-07T08:17:34Z</time>
      </trkpt>
      <trkpt lat="50.14039" lon="3.7196">
        <ele>138.09</ele>
        <time>2015-01-07T08:17:35Z</time>
      </trkpt>
      <trkpt lat="50.14115" lon="3.72016">
        <ele>137.13</ele>
        <time>2015-01-07T08:17:51Z</time>
      </trkpt>
      <trkpt lat="50.14201" lon="3.72092">
        <ele>137.13</ele>
        <time>2015-01-07T08:18:11Z</time>
      </trkpt>
      <trkpt lat="50.1422" lon="3.72105">
        <ele>137.13</ele>
        <time>2015-01-07T08:18:15Z</time>
      </trkpt>
      <trkpt lat="50.14224" lon="3.72108">
        <ele>137.13</ele>
        <time>2015-01-07T08:18:16Z</time>
      </trkpt>
      <trkpt lat="50.14312" lon="3.72134">
        <ele>137.13</ele>
        <time>2015-01-07T08:18:33Z</time>
      </trkpt>
      <trkpt lat="50.14407" lon="3.72141">
        <ele>138.09</ele>
        <time>2015-01-07T08:18:51Z</time>
      </trkpt>
      <trkpt lat="50.14517" lon="3.72147">
        <ele>138.09</ele>
        <time>2015-01-07T08:19:10Z</time>
      </trkpt>
      <trkpt lat="50.14617" lon="3.72174">
        <ele>138.57</ele>
        <time>2015-01-07T08:19:29Z</time>
      </trkpt>
      <trkpt lat="50.14693" lon="3.72197">
        <ele>138.57</ele>
        <time>2015-01-07T08:19:43Z</time>
      </trkpt>
      <trkpt lat="50.14703" lon="3.72204">
        <ele>138.57</ele>
        <time>2015-01-07T08:19:45Z</time>
      </trkpt>
      <trkpt lat="50.14708" lon="3.72209">
        <ele>138.57</ele>
        <time>2015-01-07T08:19:46Z</time>
      </trkpt>
      <trkpt lat="50.14712" lon="3.72215">
        <ele>138.57</ele>
        <time>2015-01-07T08:19:47Z</time>
      </trkpt>
      <trkpt lat="50.14716" lon="3.72222">
        <ele>138.57</ele>
        <time>2015-01-07T08:19:48Z</time>
      </trkpt>
      <trkpt lat="50.14719" lon="3.72229">
        <ele>138.57</ele>
        <time>2015-01-07T08:19:49Z</time>
      </trkpt>
      <trkpt lat="50.14722" lon="3.72237">
        <ele>138.57</ele>
        <time>2015-01-07T08:19:50Z</time>
      </trkpt>
      <trkpt lat="50.14724" lon="3.72245">
        <ele>138.57</ele>
        <time>2015-01-07T08:19:51Z</time>
      </trkpt>
      <trkpt lat="50.14726" lon="3.72253">
        <ele>138.57</ele>
        <time>2015-01-07T08:19:52Z</time>
      </trkpt>
      <trkpt lat="50.14727" lon="3.72261">
        <ele>138.57</ele>
        <time>2015-01-07T08:19:53Z</time>
      </trkpt>
      <trkpt lat="50.1477" lon="3.72356">
        <ele>138.57</ele>
        <time>2015-01-07T08:20:07Z</time>
      </trkpt>
      <trkpt lat="50.14842" lon="3.7242">
        <ele>138.57</ele>
        <time>2015-01-07T08:20:22Z</time>
      </trkpt>
      <trkpt lat="50.14847" lon="3.72421">
        <ele>138.57</ele>
        <time>2015-01-07T08:20:23Z</time>
      </trkpt>
      <trkpt lat="50.14853" lon="3.72421">
        <ele>138.57</ele>
        <time>2015-01-07T08:20:24Z</time>
      </trkpt>
      <trkpt lat="50.14902" lon="3.72414">
        <ele>138.57</ele>
        <time>2015-01-07T08:20:33Z</time>
      </trkpt>
      <trkpt lat="50.14907" lon="3.72415">
        <ele>138.57</ele>
        <time>2015-01-07T08:20:34Z</time>
      </trkpt>
      <trkpt lat="50.14912" lon="3.72417">
        <ele>138.57</ele>
        <time>2015-01-07T08:20:35Z</time>
      </trkpt>
      <trkpt lat="50.14917" lon="3.72419">
        <ele>138.57</ele>
        <time>2015-01-07T08:20:36Z</time>
      </trkpt>
      <trkpt lat="50.14921" lon="3.72423">
        <ele>138.57</ele>
        <time>2015-01-07T08:20:37Z</time>
      </trkpt>
      <trkpt lat="50.14926" lon="3.72427">
        <ele>138.57</ele>
        <time>2015-01-07T08:20:38Z</time>
      </trkpt>
      <trkpt lat="50.14929" lon="3.72432">
        <ele>138.57</ele>
        <time>2015-01-07T08:20:39Z</time>
      </trkpt>
      <trkpt lat="50.14933" lon="3.72437">
        <ele>138.57</ele>
        <time>2015-01-07T08:20:40Z</time>
      </trkpt>
      <trkpt lat="50.14982" lon="3.72512">
        <ele>138.57</ele>
        <time>2015-01-07T08:20:52Z</time>
      </trkpt>
      <trkpt lat="50.15057" lon="3.72579">
        <ele>138.57</ele>
        <time>2015-01-07T08:21:08Z</time>
      </trkpt>
      <trkpt lat="50.1511" lon="3.72671">
        <ele>138.57</ele>
        <time>2015-01-07T08:21:23Z</time>
      </trkpt>
      <trkpt lat="50.15161" lon="3.72765">
        <ele>138.57</ele>
        <time>2015-01-07T08:21:39Z</time>
      </trkpt>
      <trkpt lat="50.15175" lon="3.72793">
        <ele>138.57</ele>
        <time>2015-01-07T08:21:44Z</time>
      </trkpt>
      <trkpt lat="50.15218" lon="3.72871">
        <ele>140.01</ele>
        <time>2015-01-07T08:21:59Z</time>
      </trkpt>
      <trkpt lat="50.15248" lon="3.72914">
        <ele>140.01</ele>
        <time>2015-01-07T08:22:12Z</time>
      </trkpt>
      <trkpt lat="50.153" lon="3.72977">
        <ele>139.05</ele>
        <time>2015-01-07T08:22:27Z</time>
      </trkpt>
      <trkpt lat="50.15374" lon="3.73066">
        <ele>138.57</ele>
        <time>2015-01-07T08:22:47Z</time>
      </trkpt>
      <trkpt lat="50.15449" lon="3.73176">
        <ele>138.57</ele>
        <time>2015-01-07T08:23:10Z</time>
      </trkpt>
      <trkpt lat="50.15461" lon="3.73196">
        <ele>138.57</ele>
        <time>2015-01-07T08:23:14Z</time>
      </trkpt>
      <trkpt lat="50.15464" lon="3.73201">
        <ele>138.57</ele>
        <time>2015-01-07T08:23:15Z</time>
      </trkpt>
      <trkpt lat="50.15466" lon="3.73206">
        <ele>138.57</ele>
        <time>2015-01-07T08:23:16Z</time>
      </trkpt>
      <trkpt lat="50.15509" lon="3.73303">
        <ele>138.57</ele>
        <time>2015-01-07T08:23:33Z</time>
      </trkpt>
      <trkpt lat="50.15545" lon="3.73422">
        <ele>138.57</ele>
        <time>2015-01-07T08:23:51Z</time>
      </trkpt>
      <trkpt lat="50.15593" lon="3.7353">
        <ele>138.57</ele>
        <time>2015-01-07T08:24:08Z</time>
      </trkpt>
      <trkpt lat="50.15639" lon="3.73613">
        <ele>138.09</ele>
        <time>2015-01-07T08:24:22Z</time>
      </trkpt>
      <trkpt lat="50.15649" lon="3.73639">
        <ele>138.09</ele>
        <time>2015-01-07T08:24:26Z</time>
      </trkpt>
      <trkpt lat="50.15651" lon="3.73647">
        <ele>138.09</ele>
        <time>2015-01-07T08:24:27Z</time>
      </trkpt>
      <trkpt lat="50.15671" lon="3.73736">
        <ele>138.09</ele>
        <time>2015-01-07T08:24:40Z</time>
      </trkpt>
      <trkpt lat="50.1568" lon="3.7386">
        <ele>138.09</ele>
        <time>2015-01-07T08:24:57Z</time>
      </trkpt>
      <trkpt lat="50.1567" lon="3.74007">
        <ele>138.09</ele>
        <time>2015-01-07T08:25:18Z</time>
      </trkpt>
      <trkpt lat="50.15663" lon="3.74124">
        <ele>138.09</ele>
        <time>2015-01-07T08:25:35Z</time>
      </trkpt>
      <trkpt lat="50.15646" lon="3.74263">
        <ele>137.61</ele>
        <time>2015-01-07T08:25:56Z</time>
      </trkpt>
      <trkpt lat="50.15644" lon="3.74276">
        <ele>137.61</ele>
        <time>2015-01-07T08:25:58Z</time>
      </trkpt>
      <trkpt lat="50.15643" lon="3.74282">
        <ele>137.61</ele>
        <time>2015-01-07T08:25:59Z</time>
      </trkpt>
      <trkpt lat="50.15641" lon="3.74289">
        <ele>139.05</ele>
        <time>2015-01-07T08:26:00Z</time>
      </trkpt>
      <trkpt lat="50.15635" lon="3.74307">
        <ele>139.05</ele>
        <time>2015-01-07T08:26:03Z</time>
      </trkpt>
      <trkpt lat="50.1562" lon="3.74355">
        <ele>141.93</ele>
        <time>2015-01-07T08:26:13Z</time>
      </trkpt>
      <trkpt lat="50.15618" lon="3.74357">
        <ele>141.93</ele>
        <time>2015-01-07T08:26:14Z</time>
      </trkpt>
      <trkpt lat="50.15617" lon="3.7436">
        <ele>141.93</ele>
        <time>2015-01-07T08:26:15Z</time>
      </trkpt>
      <trkpt lat="50.15617" lon="3.74364">
        <ele>141.93</ele>
        <time>2015-01-07T08:26:16Z</time>
      </trkpt>
      <trkpt lat="50.15617" lon="3.74368">
        <ele>141.93</ele>
        <time>2015-01-07T08:26:17Z</time>
      </trkpt>
      <trkpt lat="50.15617" lon="3.74373">
        <ele>141.93</ele>
        <time>2015-01-07T08:26:18Z</time>
      </trkpt>
      <trkpt lat="50.15614" lon="3.74408">
        <ele>140.01</ele>
        <time>2015-01-07T08:26:23Z</time>
      </trkpt>
      <trkpt lat="50.156" lon="3.74534">
        <ele>138.57</ele>
        <time>2015-01-07T08:26:39Z</time>
      </trkpt>
      <trkpt lat="50.15589" lon="3.74658">
        <ele>138.57</ele>
        <time>2015-01-07T08:26:56Z</time>
      </trkpt>
      <trkpt lat="50.15582" lon="3.74755">
        <ele>138.09</ele>
        <time>2015-01-07T08:27:08Z</time>
      </trkpt>
      <trkpt lat="50.1557" lon="3.74904">
        <ele>138.09</ele>
        <time>2015-01-07T08:27:29Z</time>
      </trkpt>
      <trkpt lat="50.15562" lon="3.75006">
        <ele>138.09</ele>
        <time>2015-01-07T08:27:44Z</time>
      </trkpt>
      <trkpt lat="50.15561" lon="3.75013">
        <ele>138.09</ele>
        <time>2015-01-07T08:27:45Z</time>
      </trkpt>
      <trkpt lat="50.1556" lon="3.75019">
        <ele>138.09</ele>
        <time>2015-01-07T08:27:46Z</time>
      </trkpt>
      <trkpt lat="50.15551" lon="3.75139">
        <ele>137.61</ele>
        <time>2015-01-07T08:28:04Z</time>
      </trkpt>
      <trkpt lat="50.15542" lon="3.75258">
        <ele>137.61</ele>
        <time>2015-01-07T08:28:22Z</time>
      </trkpt>
      <trkpt lat="50.15533" lon="3.75379">
        <ele>137.61</ele>
        <time>2015-01-07T08:28:41Z</time>
      </trkpt>
      <trkpt lat="50.15528" lon="3.75426">
        <ele>137.61</ele>
        <time>2015-01-07T08:28:48Z</time>
      </trkpt>
      <trkpt lat="50.1552" lon="3.75528">
        <ele>137.61</ele>
        <time>2015-01-07T08:29:04Z</time>
      </trkpt>
      <trkpt lat="50.15509" lon="3.75664">
        <ele>137.61</ele>
        <time>2015-01-07T08:29:25Z</time>
      </trkpt>
      <trkpt lat="50.15506" lon="3.75715">
        <ele>137.61</ele>
        <time>2015-01-07T08:29:33Z</time>
      </trkpt>
      <trkpt lat="50.15504" lon="3.75741">
        <ele>137.61</ele>
        <time>2015-01-07T08:29:37Z</time>
      </trkpt>
      <trkpt lat="50.15483" lon="3.75804">
        <ele>137.61</ele>
        <time>2015-01-07T08:29:49Z</time>
      </trkpt>
      <trkpt lat="50.15481" lon="3.75816">
        <ele>137.61</ele>
        <time>2015-01-07T08:29:51Z</time>
      </trkpt>
      <trkpt lat="50.15481" lon="3.75822">
        <ele>137.61</ele>
        <time>2015-01-07T08:29:52Z</time>
      </trkpt>
      <trkpt lat="50.15481" lon="3.75829">
        <ele>137.61</ele>
        <time>2015-01-07T08:29:53Z</time>
      </trkpt>
      <trkpt lat="50.15482" lon="3.75836">
        <ele>137.61</ele>
        <time>2015-01-07T08:29:54Z</time>
      </trkpt>
      <trkpt lat="50.15483" lon="3.75842">
        <ele>137.61</ele>
        <time>2015-01-07T08:29:55Z</time>
      </trkpt>
      <trkpt lat="50.15484" lon="3.75849">
        <ele>137.61</ele>
        <time>2015-01-07T08:29:56Z</time>
      </trkpt>
      <trkpt lat="50.15486" lon="3.75855">
        <ele>137.61</ele>
        <time>2015-01-07T08:29:57Z</time>
      </trkpt>
      <trkpt lat="50.15508" lon="3.75924">
        <ele>137.61</ele>
        <time>2015-01-07T08:30:08Z</time>
      </trkpt>
      <trkpt lat="50.15514" lon="3.75968">
        <ele>137.61</ele>
        <time>2015-01-07T08:30:15Z</time>
      </trkpt>
      <trkpt lat="50.15516" lon="3.75975">
        <ele>137.61</ele>
        <time>2015-01-07T08:30:16Z</time>
      </trkpt>
      <trkpt lat="50.15528" lon="3.7607">
        <ele>138.57</ele>
        <time>2015-01-07T08:30:30Z</time>
      </trkpt>
      <trkpt lat="50.15537" lon="3.76107">
        <ele>138.57</ele>
        <time>2015-01-07T08:30:36Z</time>
      </trkpt>
      <trkpt lat="50.1555" lon="3.76168">
        <ele>138.57</ele>
        <time>2015-01-07T08:30:48Z</time>
      </trkpt>
      <trkpt lat="50.15554" lon="3.7618">
        <ele>140.49</ele>
        <time>2015-01-07T08:30:57Z</time>
      </trkpt>
      <trkpt lat="50.15557" lon="3.76179">
        <ele>140.97</ele>
        <time>2015-01-07T08:31:02Z</time>
      </trkpt>
      <trkpt lat="50.15561" lon="3.76176">
        <ele>139.53</ele>
        <time>2015-01-07T08:31:11Z</time>
      </trkpt>
      <trkpt lat="50.15563" lon="3.7617">
        <ele>138.57</ele>
        <time>2015-01-07T08:31:16Z</time>
      </trkpt>
      <trkpt lat="50.15564" lon="3.76168">
        <ele>138.57</ele>
        <time>2015-01-07T08:31:17Z</time>
      </trkpt>
      <trkpt lat="50.15572" lon="3.76163">
        <ele>138.57</ele>
        <time>2015-01-07T08:31:21Z</time>
      </trkpt>
      <trkpt lat="50.1561" lon="3.76135">
        <ele>138.57</ele>
        <time>2015-01-07T08:31:35Z</time>
      </trkpt>
      <trkpt lat="50.15635" lon="3.7611">
        <ele>137.13</ele>
        <time>2015-01-07T08:31:42Z</time>
      </trkpt>
      <trkpt lat="50.15639" lon="3.76108">
        <ele>137.13</ele>
        <time>2015-01-07T08:31:43Z</time>
      </trkpt>
      <trkpt lat="50.15643" lon="3.76106">
        <ele>137.13</ele>
        <time>2015-01-07T08:31:44Z</time>
      </trkpt>
      <trkpt lat="50.15694" lon="3.76075">
        <ele>136.64</ele>
        <time>2015-01-07T08:31:56Z</time>
      </trkpt>
      <trkpt lat="50.15772" lon="3.76027">
        <ele>136.64</ele>
        <time>2015-01-07T08:32:15Z</time>
      </trkpt>
      <trkpt lat="50.15827" lon="3.75991">
        <ele>136.64</ele>
        <time>2015-01-07T08:32:29Z</time>
      </trkpt>
      <trkpt lat="50.15831" lon="3.75989">
        <ele>136.64</ele>
        <time>2015-01-07T08:32:30Z</time>
      </trkpt>
      <trkpt lat="50.1584" lon="3.75985">
        <ele>136.64</ele>
        <time>2015-01-07T08:32:32Z</time>
      </trkpt>
      <trkpt lat="50.15848" lon="3.75982">
        <ele>137.61</ele>
        <time>2015-01-07T08:32:34Z</time>
      </trkpt>
      <trkpt lat="50.15898" lon="3.75958">
        <ele>138.57</ele>
        <time>2015-01-07T08:32:46Z</time>
      </trkpt>
      <trkpt lat="50.15914" lon="3.75945">
        <ele>139.05</ele>
        <time>2015-01-07T08:32:53Z</time>
      </trkpt>
      <trkpt lat="50.15914" lon="3.75942">
        <ele>139.05</ele>
        <time>2015-01-07T08:32:54Z</time>
      </trkpt>
      <trkpt lat="50.15914" lon="3.75938">
        <ele>139.05</ele>
        <time>2015-01-07T08:32:55Z</time>
      </trkpt>
      <trkpt lat="50.15913" lon="3.75933">
        <ele>139.05</ele>
        <time>2015-01-07T08:32:56Z</time>
      </trkpt>
      <trkpt lat="50.15913" lon="3.75928">
        <ele>139.05</ele>
        <time>2015-01-07T08:32:57Z</time>
      </trkpt>
      <trkpt lat="50.15912" lon="3.75922">
        <ele>139.05</ele>
        <time>2015-01-07T08:32:58Z</time>
      </trkpt>
      <trkpt lat="50.15911" lon="3.75916">
        <ele>139.05</ele>
        <time>2015-01-07T08:32:59Z</time>
      </trkpt>
      <trkpt lat="50.1591" lon="3.7591">
        <ele>139.05</ele>
        <time>2015-01-07T08:33:00Z</time>
      </trkpt>
      <trkpt lat="50.15899" lon="3.75837">
        <ele>139.05</ele>
        <time>2015-01-07T08:33:12Z</time>
      </trkpt>
      <trkpt lat="50.15882" lon="3.75727">
        <ele>139.05</ele>
        <time>2015-01-07T08:33:29Z</time>
      </trkpt>
      <trkpt lat="50.15862" lon="3.75608">
        <ele>139.05</ele>
        <time>2015-01-07T08:33:46Z</time>
      </trkpt>
      <trkpt lat="50.1585" lon="3.75518">
        <ele>139.05</ele>
        <time>2015-01-07T08:33:59Z</time>
      </trkpt>
      <trkpt lat="50.15852" lon="3.75512">
        <ele>139.05</ele>
        <time>2015-01-07T08:34:00Z</time>
      </trkpt>
      <trkpt lat="50.15855" lon="3.75508">
        <ele>139.05</ele>
        <time>2015-01-07T08:34:01Z</time>
      </trkpt>
      <trkpt lat="50.15859" lon="3.75505">
        <ele>139.05</ele>
        <time>2015-01-07T08:34:02Z</time>
      </trkpt>
      <trkpt lat="50.15862" lon="3.75505">
        <ele>139.53</ele>
        <time>2015-01-07T08:34:03Z</time>
      </trkpt>
      <trkpt lat="50.15865" lon="3.75505">
        <ele>139.53</ele>
        <time>2015-01-07T08:34:04Z</time>
      </trkpt>
      <trkpt lat="50.15868" lon="3.75504">
        <ele>139.53</ele>
        <time>2015-01-07T08:34:05Z</time>
      </trkpt>
      <trkpt lat="50.15871" lon="3.75503">
        <ele>139.53</ele>
        <time>2015-01-07T08:34:06Z</time>
      </trkpt>
      <trkpt lat="50.15873" lon="3.75501">
        <ele>139.53</ele>
        <time>2015-01-07T08:34:07Z</time>
      </trkpt>
      <trkpt lat="50.15875" lon="3.75501">
        <ele>139.53</ele>
        <time>2015-01-07T08:34:08Z</time>
      </trkpt>
      <trkpt lat="50.15877" lon="3.75502">
        <ele>139.53</ele>
        <time>2015-01-07T08:34:09Z</time>
      </trkpt>
      <trkpt lat="50.15879" lon="3.75502">
        <ele>139.53</ele>
        <time>2015-01-07T08:34:10Z</time>
      </trkpt>
      <trkpt lat="50.15882" lon="3.75503">
        <ele>139.53</ele>
        <time>2015-01-07T08:34:11Z</time>
      </trkpt>
      <trkpt lat="50.15918" lon="3.75502">
        <ele>140.97</ele>
        <time>2015-01-07T08:34:22Z</time>
      </trkpt>
      <trkpt lat="50.15968" lon="3.75506">
        <ele>142.41</ele>
        <time>2015-01-07T08:34:36Z</time>
      </trkpt>
      <trkpt lat="50.16004" lon="3.75507">
        <ele>143.37</ele>
        <time>2015-01-07T08:34:47Z</time>
      </trkpt>
      <trkpt lat="50.16032" lon="3.75505">
        <ele>143.37</ele>
        <time>2015-01-07T08:35:00Z</time>
      </trkpt>
      <trkpt lat="50.16045" lon="3.75502">
        <ele>143.85</ele>
        <time>2015-01-07T08:35:10Z</time>
      </trkpt>
      <trkpt lat="50.16046" lon="3.75503">
        <ele>143.85</ele>
        <time>2015-01-07T08:35:11Z</time>
      </trkpt>
      <trkpt lat="50.16048" lon="3.75503">
        <ele>143.85</ele>
        <time>2015-01-07T08:35:12Z</time>
      </trkpt>
      <trkpt lat="50.16049" lon="3.75504">
        <ele>143.85</ele>
        <time>2015-01-07T08:35:13Z</time>
      </trkpt>
      <trkpt lat="50.16064" lon="3.75508">
        <ele>143.85</ele>
        <time>2015-01-07T08:35:25Z</time>
      </trkpt>
      <trkpt lat="50.16095" lon="3.75508">
        <ele>144.82</ele>
        <time>2015-01-07T08:35:39Z</time>
      </trkpt>
      <trkpt lat="50.16134" lon="3.75505">
        <ele>146.26</ele>
        <time>2015-01-07T08:35:53Z</time>
      </trkpt>
      <trkpt lat="50.16185" lon="3.75505">
        <ele>146.74</ele>
        <time>2015-01-07T08:36:08Z</time>
      </trkpt>
      <trkpt lat="50.16235" lon="3.75507">
        <ele>146.74</ele>
        <time>2015-01-07T08:36:22Z</time>
      </trkpt>
      <trkpt lat="50.1627" lon="3.75508">
        <ele>145.3</ele>
        <time>2015-01-07T08:36:30Z</time>
      </trkpt>
      <trkpt lat="50.16343" lon="3.75509">
        <ele>141.93</ele>
        <time>2015-01-07T08:36:44Z</time>
      </trkpt>
      <trkpt lat="50.16412" lon="3.7551">
        <ele>140.01</ele>
        <time>2015-01-07T08:36:56Z</time>
      </trkpt>
      <trkpt lat="50.16417" lon="3.75511">
        <ele>140.01</ele>
        <time>2015-01-07T08:36:57Z</time>
      </trkpt>
      <trkpt lat="50.16426" lon="3.7551">
        <ele>139.53</ele>
        <time>2015-01-07T08:36:59Z</time>
      </trkpt>
      <trkpt lat="50.1644" lon="3.75512">
        <ele>139.53</ele>
        <time>2015-01-07T08:37:02Z</time>
      </trkpt>
      <trkpt lat="50.16444" lon="3.75512">
        <ele>139.53</ele>
        <time>2015-01-07T08:37:03Z</time>
      </trkpt>
      <trkpt lat="50.16448" lon="3.75512">
        <ele>139.53</ele>
        <time>2015-01-07T08:37:04Z</time>
      </trkpt>
      <trkpt lat="50.16509" lon="3.75513">
        <ele>141.93</ele>
        <time>2015-01-07T08:37:18Z</time>
      </trkpt>
      <trkpt lat="50.16546" lon="3.75513">
        <ele>142.89</ele>
        <time>2015-01-07T08:37:25Z</time>
      </trkpt>
      <trkpt lat="50.1655" lon="3.75513">
        <ele>142.89</ele>
        <time>2015-01-07T08:37:26Z</time>
      </trkpt>
      <trkpt lat="50.16554" lon="3.75514">
        <ele>142.89</ele>
        <time>2015-01-07T08:37:27Z</time>
      </trkpt>
      <trkpt lat="50.16558" lon="3.75514">
        <ele>142.89</ele>
        <time>2015-01-07T08:37:28Z</time>
      </trkpt>
      <trkpt lat="50.16562" lon="3.75514">
        <ele>142.89</ele>
        <time>2015-01-07T08:37:29Z</time>
      </trkpt>
      <trkpt lat="50.16567" lon="3.75514">
        <ele>142.89</ele>
        <time>2015-01-07T08:37:30Z</time>
      </trkpt>
      <trkpt lat="50.16632" lon="3.75514">
        <ele>143.37</ele>
        <time>2015-01-07T08:37:45Z</time>
      </trkpt>
      <trkpt lat="50.16685" lon="3.75512">
        <ele>143.37</ele>
        <time>2015-01-07T08:37:58Z</time>
      </trkpt>
      <trkpt lat="50.16756" lon="3.75512">
        <ele>143.37</ele>
        <time>2015-01-07T08:38:15Z</time>
      </trkpt>
      <trkpt lat="50.1679" lon="3.75513">
        <ele>144.34</ele>
        <time>2015-01-07T08:38:24Z</time>
      </trkpt>
      <trkpt lat="50.16835" lon="3.75515">
        <ele>145.3</ele>
        <time>2015-01-07T08:38:35Z</time>
      </trkpt>
      <trkpt lat="50.16879" lon="3.75519">
        <ele>146.74</ele>
        <time>2015-01-07T08:38:47Z</time>
      </trkpt>
      <trkpt lat="50.16923" lon="3.75518">
        <ele>148.18</ele>
        <time>2015-01-07T08:39:00Z</time>
      </trkpt>
      <trkpt lat="50.16966" lon="3.75518">
        <ele>150.1</ele>
        <time>2015-01-07T08:39:13Z</time>
      </trkpt>
      <trkpt lat="50.17009" lon="3.75516">
        <ele>150.58</ele>
        <time>2015-01-07T08:39:26Z</time>
      </trkpt>
      <trkpt lat="50.17064" lon="3.75518">
        <ele>152.03</ele>
        <time>2015-01-07T08:39:42Z</time>
      </trkpt>
      <trkpt lat="50.1712" lon="3.7552">
        <ele>152.03</ele>
        <time>2015-01-07T08:39:56Z</time>
      </trkpt>
      <trkpt lat="50.17176" lon="3.75521">
        <ele>153.47</ele>
        <time>2015-01-07T08:40:10Z</time>
      </trkpt>
      <trkpt lat="50.17226" lon="3.7552">
        <ele>155.39</ele>
        <time>2015-01-07T08:40:22Z</time>
      </trkpt>
      <trkpt lat="50.17273" lon="3.75522">
        <ele>157.31</ele>
        <time>2015-01-07T08:40:36Z</time>
      </trkpt>
      <trkpt lat="50.17315" lon="3.7552">
        <ele>159.24</ele>
        <time>2015-01-07T08:40:49Z</time>
      </trkpt>
      <trkpt lat="50.17364" lon="3.75521">
        <ele>160.68</ele>
        <time>2015-01-07T08:41:03Z</time>
      </trkpt>
      <trkpt lat="50.17411" lon="3.75522">
        <ele>161.16</ele>
        <time>2015-01-07T08:41:16Z</time>
      </trkpt>
      <trkpt lat="50.17451" lon="3.75523">
        <ele>159.72</ele>
        <time>2015-01-07T08:41:25Z</time>
      </trkpt>
      <trkpt lat="50.17499" lon="3.75523">
        <ele>156.83</ele>
        <time>2015-01-07T08:41:33Z</time>
      </trkpt>
      <trkpt lat="50.17533" lon="3.75525">
        <ele>154.91</ele>
        <time>2015-01-07T08:41:38Z</time>
      </trkpt>
      <trkpt lat="50.17612" lon="3.75526">
        <ele>154.43</ele>
        <time>2015-01-07T08:41:51Z</time>
      </trkpt>
      <trkpt lat="50.17628" lon="3.75526">
        <ele>156.35</ele>
        <time>2015-01-07T08:41:54Z</time>
      </trkpt>
      <trkpt lat="50.17685" lon="3.75527">
        <ele>157.31</ele>
        <time>2015-01-07T08:42:06Z</time>
      </trkpt>
      <trkpt lat="50.177" lon="3.75527">
        <ele>155.87</ele>
        <time>2015-01-07T08:42:09Z</time>
      </trkpt>
      <trkpt lat="50.17738" lon="3.75529">
        <ele>155.39</ele>
        <time>2015-01-07T08:42:17Z</time>
      </trkpt>
      <trkpt lat="50.17777" lon="3.7553">
        <ele>159.24</ele>
        <time>2015-01-07T08:42:26Z</time>
      </trkpt>
      <trkpt lat="50.17803" lon="3.75529">
        <ele>160.68</ele>
        <time>2015-01-07T08:42:32Z</time>
      </trkpt>
      <trkpt lat="50.17808" lon="3.75528">
        <ele>160.68</ele>
        <time>2015-01-07T08:42:33Z</time>
      </trkpt>
      <trkpt lat="50.17813" lon="3.75528">
        <ele>161.16</ele>
        <time>2015-01-07T08:42:34Z</time>
      </trkpt>
      <trkpt lat="50.17864" lon="3.75531">
        <ele>163.08</ele>
        <time>2015-01-07T08:42:45Z</time>
      </trkpt>
      <trkpt lat="50.17911" lon="3.7553">
        <ele>165</ele>
        <time>2015-01-07T08:42:58Z</time>
      </trkpt>
      <trkpt lat="50.17932" lon="3.75532">
        <ele>165.48</ele>
        <time>2015-01-07T08:43:05Z</time>
      </trkpt>
      <trkpt lat="50.17934" lon="3.75534">
        <ele>165.96</ele>
        <time>2015-01-07T08:43:06Z</time>
      </trkpt>
      <trkpt lat="50.17936" lon="3.75535">
        <ele>165.96</ele>
        <time>2015-01-07T08:43:07Z</time>
      </trkpt>
      <trkpt lat="50.17938" lon="3.75535">
        <ele>165.96</ele>
        <time>2015-01-07T08:43:08Z</time>
      </trkpt>
      <trkpt lat="50.1794" lon="3.75534">
        <ele>165.96</ele>
        <time>2015-01-07T08:43:09Z</time>
      </trkpt>
      <trkpt lat="50.17942" lon="3.75532">
        <ele>165.96</ele>
        <time>2015-01-07T08:43:10Z</time>
      </trkpt>
      <trkpt lat="50.17944" lon="3.75531">
        <ele>165.96</ele>
        <time>2015-01-07T08:43:11Z</time>
      </trkpt>
      <trkpt lat="50.17947" lon="3.7553">
        <ele>165.96</ele>
        <time>2015-01-07T08:43:12Z</time>
      </trkpt>
      <trkpt lat="50.17978" lon="3.75531">
        <ele>166.45</ele>
        <time>2015-01-07T08:43:23Z</time>
      </trkpt>
      <trkpt lat="50.18016" lon="3.75535">
        <ele>167.41</ele>
        <time>2015-01-07T08:43:37Z</time>
      </trkpt>
      <trkpt lat="50.1803" lon="3.75535">
        <ele>166.93</ele>
        <time>2015-01-07T08:43:47Z</time>
      </trkpt>
      <trkpt lat="50.18033" lon="3.75528">
        <ele>166.93</ele>
        <time>2015-01-07T08:44:12Z</time>
      </trkpt>
      <trkpt lat="50.18033" lon="3.75525">
        <ele>166.93</ele>
        <time>2015-01-07T08:44:17Z</time>
      </trkpt>
      <trkpt lat="50.18033" lon="3.75523">
        <ele>166.93</ele>
        <time>2015-01-07T08:44:18Z</time>
      </trkpt>
      <trkpt lat="50.18033" lon="3.75522">
        <ele>166.93</ele>
        <time>2015-01-07T08:44:19Z</time>
      </trkpt>
      <trkpt lat="50.18039" lon="3.75504">
        <ele>166.93</ele>
        <time>2015-01-07T08:44:28Z</time>
      </trkpt>
      <trkpt lat="50.18041" lon="3.75503">
        <ele>166.93</ele>
        <time>2015-01-07T08:44:29Z</time>
      </trkpt>
      <trkpt lat="50.18061" lon="3.75481">
        <ele>165.96</ele>
        <time>2015-01-07T08:44:37Z</time>
      </trkpt>
      <trkpt lat="50.18071" lon="3.75469">
        <ele>165</ele>
        <time>2015-01-07T08:44:40Z</time>
      </trkpt>
      <trkpt lat="50.18083" lon="3.75455">
        <ele>164.52</ele>
        <time>2015-01-07T08:44:43Z</time>
      </trkpt>
      <trkpt lat="50.18091" lon="3.75445">
        <ele>163.56</ele>
        <time>2015-01-07T08:44:45Z</time>
      </trkpt>
      <trkpt lat="50.18096" lon="3.75439">
        <ele>163.08</ele>
        <time>2015-01-07T08:44:46Z</time>
      </trkpt>
      <trkpt lat="50.18159" lon="3.75364">
        <ele>160.68</ele>
        <time>2015-01-07T08:44:59Z</time>
      </trkpt>
      <trkpt lat="50.18189" lon="3.75326">
        <ele>162.12</ele>
        <time>2015-01-07T08:45:07Z</time>
      </trkpt>
      <trkpt lat="50.18199" lon="3.75314">
        <ele>163.08</ele>
        <time>2015-01-07T08:45:10Z</time>
      </trkpt>
      <trkpt lat="50.18202" lon="3.7531">
        <ele>163.56</ele>
        <time>2015-01-07T08:45:11Z</time>
      </trkpt>
      <trkpt lat="50.18234" lon="3.75271">
        <ele>165</ele>
        <time>2015-01-07T08:45:22Z</time>
      </trkpt>
      <trkpt lat="50.18282" lon="3.75214">
        <ele>164.04</ele>
        <time>2015-01-07T08:45:39Z</time>
      </trkpt>
      <trkpt lat="50.18334" lon="3.75152">
        <ele>160.68</ele>
        <time>2015-01-07T08:45:52Z</time>
      </trkpt>
      <trkpt lat="50.18383" lon="3.75092">
        <ele>157.79</ele>
        <time>2015-01-07T08:46:02Z</time>
      </trkpt>
      <trkpt lat="50.18437" lon="3.75024">
        <ele>157.31</ele>
        <time>2015-01-07T08:46:15Z</time>
      </trkpt>
      <trkpt lat="50.1844" lon="3.75021">
        <ele>157.31</ele>
        <time>2015-01-07T08:46:16Z</time>
      </trkpt>
      <trkpt lat="50.18443" lon="3.75016">
        <ele>158.75</ele>
        <time>2015-01-07T08:46:17Z</time>
      </trkpt>
      <trkpt lat="50.18446" lon="3.75012">
        <ele>159.24</ele>
        <time>2015-01-07T08:46:18Z</time>
      </trkpt>
      <trkpt lat="50.18449" lon="3.75008">
        <ele>159.24</ele>
        <time>2015-01-07T08:46:19Z</time>
      </trkpt>
      <trkpt lat="50.18452" lon="3.75005">
        <ele>159.24</ele>
        <time>2015-01-07T08:46:20Z</time>
      </trkpt>
      <trkpt lat="50.18454" lon="3.75002">
        <ele>159.24</ele>
        <time>2015-01-07T08:46:21Z</time>
      </trkpt>
      <trkpt lat="50.18457" lon="3.74998">
        <ele>159.72</ele>
        <time>2015-01-07T08:46:22Z</time>
      </trkpt>
      <trkpt lat="50.18473" lon="3.74978">
        <ele>159.72</ele>
        <time>2015-01-07T08:46:27Z</time>
      </trkpt>
      <trkpt lat="50.18477" lon="3.74974">
        <ele>160.2</ele>
        <time>2015-01-07T08:46:28Z</time>
      </trkpt>
      <trkpt lat="50.18481" lon="3.74969">
        <ele>160.2</ele>
        <time>2015-01-07T08:46:29Z</time>
      </trkpt>
      <trkpt lat="50.18527" lon="3.74912">
        <ele>163.08</ele>
        <time>2015-01-07T08:46:43Z</time>
      </trkpt>
      <trkpt lat="50.18565" lon="3.74867">
        <ele>165.48</ele>
        <time>2015-01-07T08:46:56Z</time>
      </trkpt>
      <trkpt lat="50.18602" lon="3.74823">
        <ele>167.89</ele>
        <time>2015-01-07T08:47:11Z</time>
      </trkpt>
      <trkpt lat="50.18636" lon="3.74781">
        <ele>169.81</ele>
        <time>2015-01-07T08:47:28Z</time>
      </trkpt>
      <trkpt lat="50.18678" lon="3.7473">
        <ele>170.29</ele>
        <time>2015-01-07T08:47:46Z</time>
      </trkpt>
      <trkpt lat="50.18719" lon="3.74682">
        <ele>170.29</ele>
        <time>2015-01-07T08:48:01Z</time>
      </trkpt>
      <trkpt lat="50.18767" lon="3.74623">
        <ele>168.85</ele>
        <time>2015-01-07T08:48:16Z</time>
      </trkpt>
      <trkpt lat="50.18827" lon="3.74547">
        <ele>165.96</ele>
        <time>2015-01-07T08:48:30Z</time>
      </trkpt>
      <trkpt lat="50.18881" lon="3.74484">
        <ele>167.41</ele>
        <time>2015-01-07T08:48:44Z</time>
      </trkpt>
      <trkpt lat="50.18932" lon="3.74421">
        <ele>170.77</ele>
        <time>2015-01-07T08:48:58Z</time>
      </trkpt>
      <trkpt lat="50.18978" lon="3.74363">
        <ele>173.17</ele>
        <time>2015-01-07T08:49:13Z</time>
      </trkpt>
      <trkpt lat="50.19025" lon="3.74306">
        <ele>174.14</ele>
        <time>2015-01-07T08:49:29Z</time>
      </trkpt>
      <trkpt lat="50.19078" lon="3.74241">
        <ele>172.69</ele>
        <time>2015-01-07T08:49:45Z</time>
      </trkpt>
      <trkpt lat="50.19135" lon="3.74172">
        <ele>169.33</ele>
        <time>2015-01-07T08:49:59Z</time>
      </trkpt>
      <trkpt lat="50.19178" lon="3.74117">
        <ele>167.41</ele>
        <time>2015-01-07T08:50:08Z</time>
      </trkpt>
      <trkpt lat="50.19242" lon="3.74038">
        <ele>166.93</ele>
        <time>2015-01-07T08:50:23Z</time>
      </trkpt>
      <trkpt lat="50.19282" lon="3.7399">
        <ele>170.29</ele>
        <time>2015-01-07T08:50:34Z</time>
      </trkpt>
      <trkpt lat="50.1931" lon="3.73957">
        <ele>172.21</ele>
        <time>2015-01-07T08:50:43Z</time>
      </trkpt>
      <trkpt lat="50.19313" lon="3.73952">
        <ele>172.21</ele>
        <time>2015-01-07T08:50:44Z</time>
      </trkpt>
      <trkpt lat="50.19351" lon="3.73904">
        <ele>175.1</ele>
        <time>2015-01-07T08:50:57Z</time>
      </trkpt>
      <trkpt lat="50.19387" lon="3.73857">
        <ele>176.54</ele>
        <time>2015-01-07T08:51:11Z</time>
      </trkpt>
      <trkpt lat="50.19431" lon="3.73803">
        <ele>176.54</ele>
        <time>2015-01-07T08:51:26Z</time>
      </trkpt>
      <trkpt lat="50.19444" lon="3.73788">
        <ele>175.1</ele>
        <time>2015-01-07T08:51:30Z</time>
      </trkpt>
      <trkpt lat="50.19491" lon="3.73729">
        <ele>171.25</ele>
        <time>2015-01-07T08:51:42Z</time>
      </trkpt>
      <trkpt lat="50.19496" lon="3.73724">
        <ele>171.25</ele>
        <time>2015-01-07T08:51:43Z</time>
      </trkpt>
      <trkpt lat="50.19501" lon="3.73717">
        <ele>171.25</ele>
        <time>2015-01-07T08:51:44Z</time>
      </trkpt>
      <trkpt lat="50.19549" lon="3.73657">
        <ele>167.89</ele>
        <time>2015-01-07T08:51:53Z</time>
      </trkpt>
      <trkpt lat="50.19571" lon="3.73631">
        <ele>167.41</ele>
        <time>2015-01-07T08:51:57Z</time>
      </trkpt>
      <trkpt lat="50.19637" lon="3.73552">
        <ele>165.48</ele>
        <time>2015-01-07T08:52:09Z</time>
      </trkpt>
      <trkpt lat="50.19721" lon="3.73451">
        <ele>165.48</ele>
        <time>2015-01-07T08:52:24Z</time>
      </trkpt>
      <trkpt lat="50.19747" lon="3.7342">
        <ele>166.93</ele>
        <time>2015-01-07T08:52:29Z</time>
      </trkpt>
      <trkpt lat="50.19799" lon="3.73356">
        <ele>169.33</ele>
        <time>2015-01-07T08:52:42Z</time>
      </trkpt>
      <trkpt lat="50.19802" lon="3.73352">
        <ele>169.33</ele>
        <time>2015-01-07T08:52:43Z</time>
      </trkpt>
      <trkpt lat="50.19857" lon="3.73284">
        <ele>171.73</ele>
        <time>2015-01-07T08:53:00Z</time>
      </trkpt>
      <trkpt lat="50.19897" lon="3.73234">
        <ele>172.21</ele>
        <time>2015-01-07T08:53:13Z</time>
      </trkpt>
      <trkpt lat="50.19941" lon="3.73182">
        <ele>173.66</ele>
        <time>2015-01-07T08:53:28Z</time>
      </trkpt>
      <trkpt lat="50.1998" lon="3.73135">
        <ele>174.62</ele>
        <time>2015-01-07T08:53:42Z</time>
      </trkpt>
      <trkpt lat="50.20008" lon="3.73102">
        <ele>174.62</ele>
        <time>2015-01-07T08:53:54Z</time>
      </trkpt>
      <trkpt lat="50.20016" lon="3.73082">
        <ele>174.62</ele>
        <time>2015-01-07T08:54:01Z</time>
      </trkpt>
      <trkpt lat="50.20014" lon="3.73079">
        <ele>174.62</ele>
        <time>2015-01-07T08:54:02Z</time>
      </trkpt>
      <trkpt lat="50.20013" lon="3.73076">
        <ele>174.62</ele>
        <time>2015-01-07T08:54:03Z</time>
      </trkpt>
      <trkpt lat="50.1998" lon="3.73045">
        <ele>173.17</ele>
        <time>2015-01-07T08:54:14Z</time>
      </trkpt>
      <trkpt lat="50.19976" lon="3.73041">
        <ele>173.17</ele>
        <time>2015-01-07T08:54:15Z</time>
      </trkpt>
      <trkpt lat="50.19902" lon="3.72968">
        <ele>169.33</ele>
        <time>2015-01-07T08:54:32Z</time>
      </trkpt>
      <trkpt lat="50.19845" lon="3.72912">
        <ele>166.45</ele>
        <time>2015-01-07T08:54:43Z</time>
      </trkpt>
      <trkpt lat="50.19808" lon="3.72875">
        <ele>164.04</ele>
        <time>2015-01-07T08:54:49Z</time>
      </trkpt>
      <trkpt lat="50.19724" lon="3.72792">
        <ele>163.08</ele>
        <time>2015-01-07T08:55:04Z</time>
      </trkpt>
      <trkpt lat="50.19701" lon="3.72769">
        <ele>164.52</ele>
        <time>2015-01-07T08:55:09Z</time>
      </trkpt>
      <trkpt lat="50.19676" lon="3.72744">
        <ele>165.96</ele>
        <time>2015-01-07T08:55:15Z</time>
      </trkpt>
      <trkpt lat="50.19668" lon="3.72735">
        <ele>166.45</ele>
        <time>2015-01-07T08:55:17Z</time>
      </trkpt>
      <trkpt lat="50.19663" lon="3.7273">
        <ele>166.45</ele>
        <time>2015-01-07T08:55:18Z</time>
      </trkpt>
      <trkpt lat="50.19659" lon="3.72726">
        <ele>166.93</ele>
        <time>2015-01-07T08:55:19Z</time>
      </trkpt>
      <trkpt lat="50.19654" lon="3.72721">
        <ele>166.93</ele>
        <time>2015-01-07T08:55:20Z</time>
      </trkpt>
      <trkpt lat="50.1965" lon="3.72716">
        <ele>166.93</ele>
        <time>2015-01-07T08:55:21Z</time>
      </trkpt>
      <trkpt lat="50.19632" lon="3.72699">
        <ele>168.85</ele>
        <time>2015-01-07T08:55:25Z</time>
      </trkpt>
      <trkpt lat="50.19571" lon="3.72638">
        <ele>170.29</ele>
        <time>2015-01-07T08:55:42Z</time>
      </trkpt>
      <trkpt lat="50.19511" lon="3.72579">
        <ele>171.25</ele>
        <time>2015-01-07T08:55:59Z</time>
      </trkpt>
      <trkpt lat="50.19434" lon="3.72502">
        <ele>172.69</ele>
        <time>2015-01-07T08:56:21Z</time>
      </trkpt>
      <trkpt lat="50.19419" lon="3.72488">
        <ele>172.69</ele>
        <time>2015-01-07T08:56:25Z</time>
      </trkpt>
      <trkpt lat="50.19376" lon="3.72444">
        <ele>173.17</ele>
        <time>2015-01-07T08:56:37Z</time>
      </trkpt>
      <trkpt lat="50.19308" lon="3.72376">
        <ele>173.66</ele>
        <time>2015-01-07T08:56:55Z</time>
      </trkpt>
      <trkpt lat="50.19259" lon="3.72326">
        <ele>174.62</ele>
        <time>2015-01-07T08:57:08Z</time>
      </trkpt>
      <trkpt lat="50.19201" lon="3.72269">
        <ele>174.62</ele>
        <time>2015-01-07T08:57:23Z</time>
      </trkpt>
      <trkpt lat="50.19128" lon="3.72197">
        <ele>174.62</ele>
        <time>2015-01-07T08:57:41Z</time>
      </trkpt>
      <trkpt lat="50.19064" lon="3.72134">
        <ele>174.62</ele>
        <time>2015-01-07T08:57:56Z</time>
      </trkpt>
      <trkpt lat="50.19001" lon="3.72072">
        <ele>172.69</ele>
        <time>2015-01-07T08:58:11Z</time>
      </trkpt>
      <trkpt lat="50.18985" lon="3.72054">
        <ele>172.69</ele>
        <time>2015-01-07T08:58:15Z</time>
      </trkpt>
      <trkpt lat="50.1898" lon="3.72051">
        <ele>172.69</ele>
        <time>2015-01-07T08:58:16Z</time>
      </trkpt>
      <trkpt lat="50.18976" lon="3.72046">
        <ele>172.69</ele>
        <time>2015-01-07T08:58:17Z</time>
      </trkpt>
      <trkpt lat="50.18956" lon="3.72024">
        <ele>172.21</ele>
        <time>2015-01-07T08:58:22Z</time>
      </trkpt>
      <trkpt lat="50.18953" lon="3.72017">
        <ele>172.21</ele>
        <time>2015-01-07T08:58:23Z</time>
      </trkpt>
      <trkpt lat="50.18951" lon="3.72011">
        <ele>171.25</ele>
        <time>2015-01-07T08:58:24Z</time>
      </trkpt>
      <trkpt lat="50.18949" lon="3.72004">
        <ele>171.25</ele>
        <time>2015-01-07T08:58:25Z</time>
      </trkpt>
      <trkpt lat="50.18948" lon="3.71999">
        <ele>171.25</ele>
        <time>2015-01-07T08:58:26Z</time>
      </trkpt>
      <trkpt lat="50.18947" lon="3.71995">
        <ele>171.25</ele>
        <time>2015-01-07T08:58:27Z</time>
      </trkpt>
      <trkpt lat="50.18947" lon="3.7199">
        <ele>171.25</ele>
        <time>2015-01-07T08:58:28Z</time>
      </trkpt>
      <trkpt lat="50.18946" lon="3.71985">
        <ele>171.25</ele>
        <time>2015-01-07T08:58:29Z</time>
      </trkpt>
      <trkpt lat="50.18945" lon="3.7198">
        <ele>171.25</ele>
        <time>2015-01-07T08:58:30Z</time>
      </trkpt>
      <trkpt lat="50.18944" lon="3.71976">
        <ele>171.25</ele>
        <time>2015-01-07T08:58:31Z</time>
      </trkpt>
      <trkpt lat="50.18942" lon="3.71971">
        <ele>171.25</ele>
        <time>2015-01-07T08:58:32Z</time>
      </trkpt>
      <trkpt lat="50.18939" lon="3.71958">
        <ele>171.25</ele>
        <time>2015-01-07T08:58:35Z</time>
      </trkpt>
      <trkpt lat="50.18921" lon="3.71888">
        <ele>172.69</ele>
        <time>2015-01-07T08:58:48Z</time>
      </trkpt>
      <trkpt lat="50.18897" lon="3.71775">
        <ele>172.69</ele>
        <time>2015-01-07T08:59:05Z</time>
      </trkpt>
      <trkpt lat="50.18887" lon="3.71728">
        <ele>171.25</ele>
        <time>2015-01-07T08:59:11Z</time>
      </trkpt>
      <trkpt lat="50.18849" lon="3.71552">
        <ele>170.29</ele>
        <time>2015-01-07T08:59:33Z</time>
      </trkpt>
      <trkpt lat="50.18835" lon="3.71486">
        <ele>170.29</ele>
        <time>2015-01-07T08:59:42Z</time>
      </trkpt>
      <trkpt lat="50.18809" lon="3.7136">
        <ele>170.29</ele>
        <time>2015-01-07T08:59:59Z</time>
      </trkpt>
      <trkpt lat="50.18791" lon="3.71278">
        <ele>167.41</ele>
        <time>2015-01-07T09:00:08Z</time>
      </trkpt>
      <trkpt lat="50.18771" lon="3.71181">
        <ele>164.04</ele>
        <time>2015-01-07T09:00:17Z</time>
      </trkpt>
      <trkpt lat="50.18735" lon="3.71005">
        <ele>161.64</ele>
        <time>2015-01-07T09:00:34Z</time>
      </trkpt>
      <trkpt lat="50.1871" lon="3.7088">
        <ele>162.12</ele>
        <time>2015-01-07T09:00:48Z</time>
      </trkpt>
      <trkpt lat="50.18705" lon="3.70855">
        <ele>163.56</ele>
        <time>2015-01-07T09:00:51Z</time>
      </trkpt>
      <trkpt lat="50.187" lon="3.70832">
        <ele>164.04</ele>
        <time>2015-01-07T09:00:54Z</time>
      </trkpt>
      <trkpt lat="50.18696" lon="3.70809">
        <ele>164.52</ele>
        <time>2015-01-07T09:00:57Z</time>
      </trkpt>
      <trkpt lat="50.18692" lon="3.70794">
        <ele>165</ele>
        <time>2015-01-07T09:00:59Z</time>
      </trkpt>
      <trkpt lat="50.1869" lon="3.70786">
        <ele>165</ele>
        <time>2015-01-07T09:01:00Z</time>
      </trkpt>
      <trkpt lat="50.18689" lon="3.70778">
        <ele>165.48</ele>
        <time>2015-01-07T09:01:01Z</time>
      </trkpt>
      <trkpt lat="50.18687" lon="3.7077">
        <ele>165.48</ele>
        <time>2015-01-07T09:01:02Z</time>
      </trkpt>
      <trkpt lat="50.18686" lon="3.70762">
        <ele>165.96</ele>
        <time>2015-01-07T09:01:03Z</time>
      </trkpt>
      <trkpt lat="50.18684" lon="3.70754">
        <ele>166.45</ele>
        <time>2015-01-07T09:01:04Z</time>
      </trkpt>
      <trkpt lat="50.1868" lon="3.70736">
        <ele>167.41</ele>
        <time>2015-01-07T09:01:06Z</time>
      </trkpt>
      <trkpt lat="50.18678" lon="3.70727">
        <ele>167.89</ele>
        <time>2015-01-07T09:01:07Z</time>
      </trkpt>
      <trkpt lat="50.18654" lon="3.70597">
        <ele>169.81</ele>
        <time>2015-01-07T09:01:23Z</time>
      </trkpt>
      <trkpt lat="50.18642" lon="3.70536">
        <ele>169.81</ele>
        <time>2015-01-07T09:01:32Z</time>
      </trkpt>
      <trkpt lat="50.18629" lon="3.70473">
        <ele>169.81</ele>
        <time>2015-01-07T09:01:43Z</time>
      </trkpt>
      <trkpt lat="50.18628" lon="3.70461">
        <ele>169.81</ele>
        <time>2015-01-07T09:01:45Z</time>
      </trkpt>
      <trkpt lat="50.18627" lon="3.70455">
        <ele>169.81</ele>
        <time>2015-01-07T09:01:46Z</time>
      </trkpt>
      <trkpt lat="50.18602" lon="3.70338">
        <ele>168.37</ele>
        <time>2015-01-07T09:02:04Z</time>
      </trkpt>
      <trkpt lat="50.18572" lon="3.70193">
        <ele>165.96</ele>
        <time>2015-01-07T09:02:22Z</time>
      </trkpt>
      <trkpt lat="50.18564" lon="3.70158">
        <ele>165.48</ele>
        <time>2015-01-07T09:02:26Z</time>
      </trkpt>
      <trkpt lat="50.1854" lon="3.7004">
        <ele>163.08</ele>
        <time>2015-01-07T09:02:39Z</time>
      </trkpt>
      <trkpt lat="50.18531" lon="3.70001">
        <ele>163.08</ele>
        <time>2015-01-07T09:02:44Z</time>
      </trkpt>
      <trkpt lat="50.18529" lon="3.69994">
        <ele>163.08</ele>
        <time>2015-01-07T09:02:45Z</time>
      </trkpt>
      <trkpt lat="50.18506" lon="3.69878">
        <ele>163.08</ele>
        <time>2015-01-07T09:03:01Z</time>
      </trkpt>
      <trkpt lat="50.18492" lon="3.6981">
        <ele>166.45</ele>
        <time>2015-01-07T09:03:13Z</time>
      </trkpt>
      <trkpt lat="50.18473" lon="3.69721">
        <ele>168.85</ele>
        <time>2015-01-07T09:03:30Z</time>
      </trkpt>
      <trkpt lat="50.18446" lon="3.69593">
        <ele>169.33</ele>
        <time>2015-01-07T09:03:52Z</time>
      </trkpt>
      <trkpt lat="50.18418" lon="3.69459">
        <ele>167.89</ele>
        <time>2015-01-07T09:04:12Z</time>
      </trkpt>
      <trkpt lat="50.18396" lon="3.69353">
        <ele>165</ele>
        <time>2015-01-07T09:04:24Z</time>
      </trkpt>
      <trkpt lat="50.18364" lon="3.69201">
        <ele>162.6</ele>
        <time>2015-01-07T09:04:40Z</time>
      </trkpt>
      <trkpt lat="50.18332" lon="3.69052">
        <ele>160.2</ele>
        <time>2015-01-07T09:04:56Z</time>
      </trkpt>
      <trkpt lat="50.18305" lon="3.68918">
        <ele>159.24</ele>
        <time>2015-01-07T09:05:11Z</time>
      </trkpt>
      <trkpt lat="50.1829" lon="3.68834">
        <ele>160.68</ele>
        <time>2015-01-07T09:05:22Z</time>
      </trkpt>
      <trkpt lat="50.18272" lon="3.68744">
        <ele>161.64</ele>
        <time>2015-01-07T09:05:35Z</time>
      </trkpt>
      <trkpt lat="50.18247" lon="3.68621">
        <ele>162.12</ele>
        <time>2015-01-07T09:05:52Z</time>
      </trkpt>
      <trkpt lat="50.18222" lon="3.68495">
        <ele>159.24</ele>
        <time>2015-01-07T09:06:09Z</time>
      </trkpt>
      <trkpt lat="50.18215" lon="3.68458">
        <ele>158.75</ele>
        <time>2015-01-07T09:06:14Z</time>
      </trkpt>
      <trkpt lat="50.18213" lon="3.68451">
        <ele>158.75</ele>
        <time>2015-01-07T09:06:15Z</time>
      </trkpt>
      <trkpt lat="50.18212" lon="3.68445">
        <ele>158.75</ele>
        <time>2015-01-07T09:06:16Z</time>
      </trkpt>
      <trkpt lat="50.1821" lon="3.6844">
        <ele>158.75</ele>
        <time>2015-01-07T09:06:17Z</time>
      </trkpt>
      <trkpt lat="50.18207" lon="3.68435">
        <ele>158.75</ele>
        <time>2015-01-07T09:06:18Z</time>
      </trkpt>
      <trkpt lat="50.18204" lon="3.6843">
        <ele>158.75</ele>
        <time>2015-01-07T09:06:19Z</time>
      </trkpt>
      <trkpt lat="50.18201" lon="3.68427">
        <ele>158.75</ele>
        <time>2015-01-07T09:06:20Z</time>
      </trkpt>
      <trkpt lat="50.18197" lon="3.68426">
        <ele>158.75</ele>
        <time>2015-01-07T09:06:21Z</time>
      </trkpt>
      <trkpt lat="50.18193" lon="3.68425">
        <ele>158.75</ele>
        <time>2015-01-07T09:06:22Z</time>
      </trkpt>
      <trkpt lat="50.18189" lon="3.68425">
        <ele>158.75</ele>
        <time>2015-01-07T09:06:23Z</time>
      </trkpt>
      <trkpt lat="50.18123" lon="3.68414">
        <ele>161.16</ele>
        <time>2015-01-07T09:06:39Z</time>
      </trkpt>
      <trkpt lat="50.18067" lon="3.68402">
        <ele>163.08</ele>
        <time>2015-01-07T09:06:54Z</time>
      </trkpt>
      <trkpt lat="50.1802" lon="3.68393">
        <ele>164.52</ele>
        <time>2015-01-07T09:07:07Z</time>
      </trkpt>
      <trkpt lat="50.17965" lon="3.6838">
        <ele>165.48</ele>
        <time>2015-01-07T09:07:21Z</time>
      </trkpt>
      <trkpt lat="50.1789" lon="3.68363">
        <ele>165.96</ele>
        <time>2015-01-07T09:07:39Z</time>
      </trkpt>
      <trkpt lat="50.17812" lon="3.68345">
        <ele>165.96</ele>
        <time>2015-01-07T09:07:57Z</time>
      </trkpt>
      <trkpt lat="50.17769" lon="3.68336">
        <ele>164.52</ele>
        <time>2015-01-07T09:08:06Z</time>
      </trkpt>
      <trkpt lat="50.17683" lon="3.68321">
        <ele>161.64</ele>
        <time>2015-01-07T09:08:21Z</time>
      </trkpt>
      <trkpt lat="50.17619" lon="3.68307">
        <ele>158.75</ele>
        <time>2015-01-07T09:08:32Z</time>
      </trkpt>
      <trkpt lat="50.17533" lon="3.68292">
        <ele>157.79</ele>
        <time>2015-01-07T09:08:46Z</time>
      </trkpt>
      <trkpt lat="50.17511" lon="3.68287">
        <ele>158.75</ele>
        <time>2015-01-07T09:08:50Z</time>
      </trkpt>
      <trkpt lat="50.17414" lon="3.68267">
        <ele>160.68</ele>
        <time>2015-01-07T09:09:04Z</time>
      </trkpt>
      <trkpt lat="50.1734" lon="3.68251">
        <ele>159.24</ele>
        <time>2015-01-07T09:09:15Z</time>
      </trkpt>
      <trkpt lat="50.17256" lon="3.68233">
        <ele>155.87</ele>
        <time>2015-01-07T09:09:28Z</time>
      </trkpt>
      <trkpt lat="50.17166" lon="3.68214">
        <ele>154.43</ele>
        <time>2015-01-07T09:09:42Z</time>
      </trkpt>
      <trkpt lat="50.17128" lon="3.68206">
        <ele>154.43</ele>
        <time>2015-01-07T09:09:49Z</time>
      </trkpt>
      <trkpt lat="50.17123" lon="3.68205">
        <ele>154.43</ele>
        <time>2015-01-07T09:09:50Z</time>
      </trkpt>
      <trkpt lat="50.17117" lon="3.68203">
        <ele>154.43</ele>
        <time>2015-01-07T09:09:51Z</time>
      </trkpt>
      <trkpt lat="50.17112" lon="3.68202">
        <ele>154.43</ele>
        <time>2015-01-07T09:09:52Z</time>
      </trkpt>
      <trkpt lat="50.17107" lon="3.68201">
        <ele>154.43</ele>
        <time>2015-01-07T09:09:53Z</time>
      </trkpt>
      <trkpt lat="50.17101" lon="3.68199">
        <ele>154.43</ele>
        <time>2015-01-07T09:09:54Z</time>
      </trkpt>
      <trkpt lat="50.17085" lon="3.68195">
        <ele>154.43</ele>
        <time>2015-01-07T09:09:57Z</time>
      </trkpt>
      <trkpt lat="50.1708" lon="3.68194">
        <ele>155.87</ele>
        <time>2015-01-07T09:09:58Z</time>
      </trkpt>
      <trkpt lat="50.17074" lon="3.68193">
        <ele>155.87</ele>
        <time>2015-01-07T09:09:59Z</time>
      </trkpt>
      <trkpt lat="50.17069" lon="3.68192">
        <ele>156.35</ele>
        <time>2015-01-07T09:10:00Z</time>
      </trkpt>
      <trkpt lat="50.17063" lon="3.6819">
        <ele>156.35</ele>
        <time>2015-01-07T09:10:01Z</time>
      </trkpt>
      <trkpt lat="50.17019" lon="3.68182">
        <ele>158.27</ele>
        <time>2015-01-07T09:10:09Z</time>
      </trkpt>
      <trkpt lat="50.17004" lon="3.68179">
        <ele>159.72</ele>
        <time>2015-01-07T09:10:12Z</time>
      </trkpt>
      <trkpt lat="50.16999" lon="3.68178">
        <ele>159.72</ele>
        <time>2015-01-07T09:10:13Z</time>
      </trkpt>
      <trkpt lat="50.16947" lon="3.6817">
        <ele>161.16</ele>
        <time>2015-01-07T09:10:26Z</time>
      </trkpt>
      <trkpt lat="50.16902" lon="3.68162">
        <ele>163.08</ele>
        <time>2015-01-07T09:10:39Z</time>
      </trkpt>
      <trkpt lat="50.16869" lon="3.68156">
        <ele>164.04</ele>
        <time>2015-01-07T09:10:50Z</time>
      </trkpt>
      <trkpt lat="50.16828" lon="3.68143">
        <ele>165.48</ele>
        <time>2015-01-07T09:11:03Z</time>
      </trkpt>
      <trkpt lat="50.16784" lon="3.68135">
        <ele>165.96</ele>
        <time>2015-01-07T09:11:16Z</time>
      </trkpt>
      <trkpt lat="50.16731" lon="3.68126">
        <ele>167.41</ele>
        <time>2015-01-07T09:11:33Z</time>
      </trkpt>
      <trkpt lat="50.16688" lon="3.68116">
        <ele>167.41</ele>
        <time>2015-01-07T09:11:47Z</time>
      </trkpt>
      <trkpt lat="50.16642" lon="3.68106">
        <ele>167.89</ele>
        <time>2015-01-07T09:12:01Z</time>
      </trkpt>
      <trkpt lat="50.16582" lon="3.68093">
        <ele>167.89</ele>
        <time>2015-01-07T09:12:17Z</time>
      </trkpt>
      <trkpt lat="50.16534" lon="3.68082">
        <ele>167.89</ele>
        <time>2015-01-07T09:12:30Z</time>
      </trkpt>
      <trkpt lat="50.16475" lon="3.68071">
        <ele>167.89</ele>
        <time>2015-01-07T09:12:45Z</time>
      </trkpt>
      <trkpt lat="50.16444" lon="3.68065">
        <ele>166.45</ele>
        <time>2015-01-07T09:12:52Z</time>
      </trkpt>
      <trkpt lat="50.1637" lon="3.68048">
        <ele>165</ele>
        <time>2015-01-07T09:13:08Z</time>
      </trkpt>
      <trkpt lat="50.16298" lon="3.68032">
        <ele>163.56</ele>
        <time>2015-01-07T09:13:25Z</time>
      </trkpt>
      <trkpt lat="50.16274" lon="3.68028">
        <ele>162.6</ele>
        <time>2015-01-07T09:13:30Z</time>
      </trkpt>
      <trkpt lat="50.16203" lon="3.68014">
        <ele>162.6</ele>
        <time>2015-01-07T09:13:46Z</time>
      </trkpt>
      <trkpt lat="50.16153" lon="3.68004">
        <ele>162.6</ele>
        <time>2015-01-07T09:13:59Z</time>
      </trkpt>
      <trkpt lat="50.16107" lon="3.67994">
        <ele>162.6</ele>
        <time>2015-01-07T09:14:11Z</time>
      </trkpt>
      <trkpt lat="50.16057" lon="3.67984">
        <ele>162.6</ele>
        <time>2015-01-07T09:14:24Z</time>
      </trkpt>
      <trkpt lat="50.16009" lon="3.67973">
        <ele>165</ele>
        <time>2015-01-07T09:14:38Z</time>
      </trkpt>
      <trkpt lat="50.15957" lon="3.67963">
        <ele>167.41</ele>
        <time>2015-01-07T09:14:54Z</time>
      </trkpt>
      <trkpt lat="50.15907" lon="3.67953">
        <ele>168.85</ele>
        <time>2015-01-07T09:15:11Z</time>
      </trkpt>
      <trkpt lat="50.15855" lon="3.67941">
        <ele>169.81</ele>
        <time>2015-01-07T09:15:29Z</time>
      </trkpt>
      <trkpt lat="50.15802" lon="3.67931">
        <ele>168.37</ele>
        <time>2015-01-07T09:15:43Z</time>
      </trkpt>
      <trkpt lat="50.15798" lon="3.6793">
        <ele>168.37</ele>
        <time>2015-01-07T09:15:44Z</time>
      </trkpt>
      <trkpt lat="50.15731" lon="3.67915">
        <ele>165.48</ele>
        <time>2015-01-07T09:15:58Z</time>
      </trkpt>
      <trkpt lat="50.15653" lon="3.67899">
        <ele>163.08</ele>
        <time>2015-01-07T09:16:12Z</time>
      </trkpt>
      <trkpt lat="50.15587" lon="3.67886">
        <ele>162.6</ele>
        <time>2015-01-07T09:16:25Z</time>
      </trkpt>
      <trkpt lat="50.15582" lon="3.67886">
        <ele>162.6</ele>
        <time>2015-01-07T09:16:26Z</time>
      </trkpt>
      <trkpt lat="50.15559" lon="3.67881">
        <ele>162.6</ele>
        <time>2015-01-07T09:16:31Z</time>
      </trkpt>
      <trkpt lat="50.15528" lon="3.67874">
        <ele>164.04</ele>
        <time>2015-01-07T09:16:38Z</time>
      </trkpt>
      <trkpt lat="50.15512" lon="3.6787">
        <ele>165</ele>
        <time>2015-01-07T09:16:41Z</time>
      </trkpt>
      <trkpt lat="50.15506" lon="3.6787">
        <ele>165</ele>
        <time>2015-01-07T09:16:42Z</time>
      </trkpt>
      <trkpt lat="50.15495" lon="3.67867">
        <ele>165.96</ele>
        <time>2015-01-07T09:16:44Z</time>
      </trkpt>
      <trkpt lat="50.15432" lon="3.67857">
        <ele>166.93</ele>
        <time>2015-01-07T09:16:58Z</time>
      </trkpt>
      <trkpt lat="50.15388" lon="3.67848">
        <ele>168.37</ele>
        <time>2015-01-07T09:17:10Z</time>
      </trkpt>
      <trkpt lat="50.15333" lon="3.67835">
        <ele>168.37</ele>
        <time>2015-01-07T09:17:24Z</time>
      </trkpt>
      <trkpt lat="50.1526" lon="3.67821">
        <ele>168.37</ele>
        <time>2015-01-07T09:17:42Z</time>
      </trkpt>
      <trkpt lat="50.15181" lon="3.67804">
        <ele>166.45</ele>
        <time>2015-01-07T09:17:58Z</time>
      </trkpt>
      <trkpt lat="50.15091" lon="3.67787">
        <ele>163.08</ele>
        <time>2015-01-07T09:18:13Z</time>
      </trkpt>
      <trkpt lat="50.15019" lon="3.67773">
        <ele>163.08</ele>
        <time>2015-01-07T09:18:27Z</time>
      </trkpt>
      <trkpt lat="50.1501" lon="3.67772">
        <ele>164.52</ele>
        <time>2015-01-07T09:18:29Z</time>
      </trkpt>
      <trkpt lat="50.14954" lon="3.67761">
        <ele>165.96</ele>
        <time>2015-01-07T09:18:43Z</time>
      </trkpt>
      <trkpt lat="50.14889" lon="3.6775">
        <ele>167.89</ele>
        <time>2015-01-07T09:18:59Z</time>
      </trkpt>
      <trkpt lat="50.14812" lon="3.67735">
        <ele>169.33</ele>
        <time>2015-01-07T09:19:19Z</time>
      </trkpt>
      <trkpt lat="50.14753" lon="3.67722">
        <ele>169.33</ele>
        <time>2015-01-07T09:19:34Z</time>
      </trkpt>
      <trkpt lat="50.14682" lon="3.67708">
        <ele>169.33</ele>
        <time>2015-01-07T09:19:51Z</time>
      </trkpt>
      <trkpt lat="50.14607" lon="3.67692">
        <ele>169.33</ele>
        <time>2015-01-07T09:20:07Z</time>
      </trkpt>
      <trkpt lat="50.14545" lon="3.6768">
        <ele>170.29</ele>
        <time>2015-01-07T09:20:23Z</time>
      </trkpt>
      <trkpt lat="50.14487" lon="3.6767">
        <ele>172.21</ele>
        <time>2015-01-07T09:20:38Z</time>
      </trkpt>
      <trkpt lat="50.14412" lon="3.67655">
        <ele>171.73</ele>
        <time>2015-01-07T09:20:57Z</time>
      </trkpt>
      <trkpt lat="50.14407" lon="3.67654">
        <ele>171.73</ele>
        <time>2015-01-07T09:20:58Z</time>
      </trkpt>
      <trkpt lat="50.14402" lon="3.67653">
        <ele>171.73</ele>
        <time>2015-01-07T09:20:59Z</time>
      </trkpt>
      <trkpt lat="50.14382" lon="3.6765">
        <ele>170.29</ele>
        <time>2015-01-07T09:21:03Z</time>
      </trkpt>
      <trkpt lat="50.14308" lon="3.67636">
        <ele>167.41</ele>
        <time>2015-01-07T09:21:17Z</time>
      </trkpt>
      <trkpt lat="50.14267" lon="3.67628">
        <ele>165.96</ele>
        <time>2015-01-07T09:21:25Z</time>
      </trkpt>
      <trkpt lat="50.14262" lon="3.67628">
        <ele>165.96</ele>
        <time>2015-01-07T09:21:26Z</time>
      </trkpt>
      <trkpt lat="50.14237" lon="3.67626">
        <ele>165.96</ele>
        <time>2015-01-07T09:21:31Z</time>
      </trkpt>
      <trkpt lat="50.14231" lon="3.67627">
        <ele>165.96</ele>
        <time>2015-01-07T09:21:32Z</time>
      </trkpt>
      <trkpt lat="50.14226" lon="3.67628">
        <ele>165.96</ele>
        <time>2015-01-07T09:21:33Z</time>
      </trkpt>
      <trkpt lat="50.14221" lon="3.67631">
        <ele>165.48</ele>
        <time>2015-01-07T09:21:34Z</time>
      </trkpt>
      <trkpt lat="50.14217" lon="3.67635">
        <ele>165.48</ele>
        <time>2015-01-07T09:21:35Z</time>
      </trkpt>
      <trkpt lat="50.14212" lon="3.6764">
        <ele>165.48</ele>
        <time>2015-01-07T09:21:36Z</time>
      </trkpt>
      <trkpt lat="50.14208" lon="3.67645">
        <ele>165.48</ele>
        <time>2015-01-07T09:21:37Z</time>
      </trkpt>
      <trkpt lat="50.14139" lon="3.67725">
        <ele>165.48</ele>
        <time>2015-01-07T09:21:55Z</time>
      </trkpt>
      <trkpt lat="50.14101" lon="3.67761">
        <ele>166.93</ele>
        <time>2015-01-07T09:22:07Z</time>
      </trkpt>
      <trkpt lat="50.1409" lon="3.6777">
        <ele>166.93</ele>
        <time>2015-01-07T09:22:10Z</time>
      </trkpt>
      <trkpt lat="50.14086" lon="3.67772">
        <ele>166.93</ele>
        <time>2015-01-07T09:22:11Z</time>
      </trkpt>
      <trkpt lat="50.14082" lon="3.67775">
        <ele>167.41</ele>
        <time>2015-01-07T09:22:12Z</time>
      </trkpt>
      <trkpt lat="50.14026" lon="3.67803">
        <ele>168.85</ele>
        <time>2015-01-07T09:22:28Z</time>
      </trkpt>
      <trkpt lat="50.13974" lon="3.67825">
        <ele>170.29</ele>
        <time>2015-01-07T09:22:44Z</time>
      </trkpt>
      <trkpt lat="50.13914" lon="3.67827">
        <ele>170.77</ele>
        <time>2015-01-07T09:22:58Z</time>
      </trkpt>
      <trkpt lat="50.13825" lon="3.67837">
        <ele>168.85</ele>
        <time>2015-01-07T09:23:18Z</time>
      </trkpt>
      <trkpt lat="50.1375" lon="3.67867">
        <ele>168.37</ele>
        <time>2015-01-07T09:23:35Z</time>
      </trkpt>
      <trkpt lat="50.13676" lon="3.67898">
        <ele>167.89</ele>
        <time>2015-01-07T09:23:52Z</time>
      </trkpt>
      <trkpt lat="50.13616" lon="3.6792">
        <ele>167.89</ele>
        <time>2015-01-07T09:24:08Z</time>
      </trkpt>
      <trkpt lat="50.1361" lon="3.67921">
        <ele>169.33</ele>
        <time>2015-01-07T09:24:10Z</time>
      </trkpt>
      <trkpt lat="50.13589" lon="3.67908">
        <ele>170.29</ele>
        <time>2015-01-07T09:24:19Z</time>
      </trkpt>
      <trkpt lat="50.13586" lon="3.67909">
        <ele>170.29</ele>
        <time>2015-01-07T09:24:20Z</time>
      </trkpt>
      <trkpt lat="50.13583" lon="3.67911">
        <ele>170.29</ele>
        <time>2015-01-07T09:24:21Z</time>
      </trkpt>
      <trkpt lat="50.13536" lon="3.6794">
        <ele>170.29</ele>
        <time>2015-01-07T09:24:37Z</time>
      </trkpt>
      <trkpt lat="50.13501" lon="3.6795">
        <ele>168.85</ele>
        <time>2015-01-07T09:24:46Z</time>
      </trkpt>
      <trkpt lat="50.13428" lon="3.67964">
        <ele>168.37</ele>
        <time>2015-01-07T09:25:04Z</time>
      </trkpt>
      <trkpt lat="50.13385" lon="3.67989">
        <ele>167.89</ele>
        <time>2015-01-07T09:25:16Z</time>
      </trkpt>
      <trkpt lat="50.13326" lon="3.68051">
        <ele>166.45</ele>
        <time>2015-01-07T09:25:33Z</time>
      </trkpt>
      <trkpt lat="50.13315" lon="3.68062">
        <ele>165.96</ele>
        <time>2015-01-07T09:25:36Z</time>
      </trkpt>
      <trkpt lat="50.13312" lon="3.68066">
        <ele>165.96</ele>
        <time>2015-01-07T09:25:37Z</time>
      </trkpt>
      <trkpt lat="50.13244" lon="3.68135">
        <ele>163.56</ele>
        <time>2015-01-07T09:25:52Z</time>
      </trkpt>
      <trkpt lat="50.13186" lon="3.68193">
        <ele>160.2</ele>
        <time>2015-01-07T09:26:03Z</time>
      </trkpt>
      <trkpt lat="50.13136" lon="3.68239">
        <ele>156.83</ele>
        <time>2015-01-07T09:26:11Z</time>
      </trkpt>
      <trkpt lat="50.13094" lon="3.68265">
        <ele>153.95</ele>
        <time>2015-01-07T09:26:17Z</time>
      </trkpt>
      <trkpt lat="50.13047" lon="3.68284">
        <ele>150.58</ele>
        <time>2015-01-07T09:26:23Z</time>
      </trkpt>
      <trkpt lat="50.13002" lon="3.68299">
        <ele>147.22</ele>
        <time>2015-01-07T09:26:29Z</time>
      </trkpt>
      <trkpt lat="50.12996" lon="3.68299">
        <ele>147.22</ele>
        <time>2015-01-07T09:26:30Z</time>
      </trkpt>
      <trkpt lat="50.1299" lon="3.68297">
        <ele>147.22</ele>
        <time>2015-01-07T09:26:31Z</time>
      </trkpt>
      <trkpt lat="50.12984" lon="3.68293">
        <ele>146.74</ele>
        <time>2015-01-07T09:26:32Z</time>
      </trkpt>
      <trkpt lat="50.12979" lon="3.68289">
        <ele>146.74</ele>
        <time>2015-01-07T09:26:33Z</time>
      </trkpt>
      <trkpt lat="50.12974" lon="3.68287">
        <ele>146.74</ele>
        <time>2015-01-07T09:26:34Z</time>
      </trkpt>
      <trkpt lat="50.12969" lon="3.68287">
        <ele>146.74</ele>
        <time>2015-01-07T09:26:35Z</time>
      </trkpt>
      <trkpt lat="50.12966" lon="3.68288">
        <ele>146.74</ele>
        <time>2015-01-07T09:26:36Z</time>
      </trkpt>
      <trkpt lat="50.12964" lon="3.68291">
        <ele>146.74</ele>
        <time>2015-01-07T09:26:37Z</time>
      </trkpt>
      <trkpt lat="50.12962" lon="3.68293">
        <ele>146.74</ele>
        <time>2015-01-07T09:26:38Z</time>
      </trkpt>
      <trkpt lat="50.12961" lon="3.68295">
        <ele>146.74</ele>
        <time>2015-01-07T09:26:39Z</time>
      </trkpt>
      <trkpt lat="50.12959" lon="3.68298">
        <ele>146.74</ele>
        <time>2015-01-07T09:26:41Z</time>
      </trkpt>
      <trkpt lat="50.12957" lon="3.68299">
        <ele>146.74</ele>
        <time>2015-01-07T09:26:42Z</time>
      </trkpt>
      <trkpt lat="50.12956" lon="3.683">
        <ele>146.74</ele>
        <time>2015-01-07T09:26:43Z</time>
      </trkpt>
      <trkpt lat="50.12954" lon="3.68303">
        <ele>146.26</ele>
        <time>2015-01-07T09:26:44Z</time>
      </trkpt>
      <trkpt lat="50.12952" lon="3.68305">
        <ele>146.26</ele>
        <time>2015-01-07T09:26:45Z</time>
      </trkpt>
      <trkpt lat="50.12949" lon="3.68308">
        <ele>146.26</ele>
        <time>2015-01-07T09:26:46Z</time>
      </trkpt>
      <trkpt lat="50.12946" lon="3.6831">
        <ele>146.26</ele>
        <time>2015-01-07T09:26:47Z</time>
      </trkpt>
      <trkpt lat="50.12942" lon="3.68312">
        <ele>146.26</ele>
        <time>2015-01-07T09:26:48Z</time>
      </trkpt>
      <trkpt lat="50.12893" lon="3.68339">
        <ele>149.62</ele>
        <time>2015-01-07T09:27:02Z</time>
      </trkpt>
      <trkpt lat="50.12863" lon="3.68379">
        <ele>148.66</ele>
        <time>2015-01-07T09:27:12Z</time>
      </trkpt>
      <trkpt lat="50.12861" lon="3.68386">
        <ele>148.66</ele>
        <time>2015-01-07T09:27:13Z</time>
      </trkpt>
      <trkpt lat="50.12858" lon="3.68393">
        <ele>147.7</ele>
        <time>2015-01-07T09:27:14Z</time>
      </trkpt>
      <trkpt lat="50.12833" lon="3.68467">
        <ele>143.85</ele>
        <time>2015-01-07T09:27:23Z</time>
      </trkpt>
      <trkpt lat="50.12816" lon="3.68546">
        <ele>140.49</ele>
        <time>2015-01-07T09:27:30Z</time>
      </trkpt>
      <trkpt lat="50.12806" lon="3.68587">
        <ele>139.05</ele>
        <time>2015-01-07T09:27:34Z</time>
      </trkpt>
      <trkpt lat="50.12794" lon="3.68613">
        <ele>138.57</ele>
        <time>2015-01-07T09:27:38Z</time>
      </trkpt>
      <trkpt lat="50.1279" lon="3.68616">
        <ele>138.57</ele>
        <time>2015-01-07T09:27:39Z</time>
      </trkpt>
      <trkpt lat="50.12786" lon="3.68616">
        <ele>138.57</ele>
        <time>2015-01-07T09:27:40Z</time>
      </trkpt>
      <trkpt lat="50.12782" lon="3.68614">
        <ele>138.57</ele>
        <time>2015-01-07T09:27:41Z</time>
      </trkpt>
      <trkpt lat="50.12779" lon="3.68609">
        <ele>138.09</ele>
        <time>2015-01-07T09:27:42Z</time>
      </trkpt>
      <trkpt lat="50.12776" lon="3.68603">
        <ele>138.09</ele>
        <time>2015-01-07T09:27:43Z</time>
      </trkpt>
      <trkpt lat="50.12774" lon="3.68596">
        <ele>138.09</ele>
        <time>2015-01-07T09:27:44Z</time>
      </trkpt>
      <trkpt lat="50.12737" lon="3.68521">
        <ele>138.09</ele>
        <time>2015-01-07T09:27:56Z</time>
      </trkpt>
      <trkpt lat="50.12736" lon="3.68514">
        <ele>137.61</ele>
        <time>2015-01-07T09:27:57Z</time>
      </trkpt>
      <trkpt lat="50.12736" lon="3.68506">
        <ele>137.61</ele>
        <time>2015-01-07T09:27:58Z</time>
      </trkpt>
      <trkpt lat="50.12738" lon="3.68499">
        <ele>137.61</ele>
        <time>2015-01-07T09:27:59Z</time>
      </trkpt>
      <trkpt lat="50.12742" lon="3.68495">
        <ele>137.61</ele>
        <time>2015-01-07T09:28:00Z</time>
      </trkpt>
      <trkpt lat="50.12746" lon="3.68492">
        <ele>137.61</ele>
        <time>2015-01-07T09:28:01Z</time>
      </trkpt>
      <trkpt lat="50.1275" lon="3.6849">
        <ele>137.61</ele>
        <time>2015-01-07T09:28:02Z</time>
      </trkpt>
      <trkpt lat="50.12781" lon="3.68464">
        <ele>137.61</ele>
        <time>2015-01-07T09:28:10Z</time>
      </trkpt>
      <trkpt lat="50.12797" lon="3.68447">
        <ele>139.05</ele>
        <time>2015-01-07T09:28:15Z</time>
      </trkpt>
      <trkpt lat="50.12798" lon="3.6844">
        <ele>139.05</ele>
        <time>2015-01-07T09:28:16Z</time>
      </trkpt>
      <trkpt lat="50.12798" lon="3.68435">
        <ele>139.05</ele>
        <time>2015-01-07T09:28:17Z</time>
      </trkpt>
      <trkpt lat="50.12797" lon="3.6843">
        <ele>139.53</ele>
        <time>2015-01-07T09:28:18Z</time>
      </trkpt>
      <trkpt lat="50.12795" lon="3.68424">
        <ele>139.53</ele>
        <time>2015-01-07T09:28:19Z</time>
      </trkpt>
      <trkpt lat="50.12793" lon="3.68419">
        <ele>139.53</ele>
        <time>2015-01-07T09:28:20Z</time>
      </trkpt>
      <trkpt lat="50.12755" lon="3.68302">
        <ele>139.53</ele>
        <time>2015-01-07T09:28:38Z</time>
      </trkpt>
      <trkpt lat="50.12709" lon="3.68177">
        <ele>138.09</ele>
        <time>2015-01-07T09:28:56Z</time>
      </trkpt>
      <trkpt lat="50.12651" lon="3.68052">
        <ele>137.13</ele>
        <time>2015-01-07T09:29:15Z</time>
      </trkpt>
      <trkpt lat="50.12599" lon="3.67951">
        <ele>137.13</ele>
        <time>2015-01-07T09:29:32Z</time>
      </trkpt>
      <trkpt lat="50.12583" lon="3.6792">
        <ele>137.13</ele>
        <time>2015-01-07T09:29:37Z</time>
      </trkpt>
      <trkpt lat="50.1258" lon="3.67915">
        <ele>137.13</ele>
        <time>2015-01-07T09:29:38Z</time>
      </trkpt>
      <trkpt lat="50.12576" lon="3.6791">
        <ele>137.13</ele>
        <time>2015-01-07T09:29:39Z</time>
      </trkpt>
      <trkpt lat="50.12572" lon="3.67906">
        <ele>137.13</ele>
        <time>2015-01-07T09:29:40Z</time>
      </trkpt>
      <trkpt lat="50.12568" lon="3.67903">
        <ele>137.13</ele>
        <time>2015-01-07T09:29:41Z</time>
      </trkpt>
      <trkpt lat="50.12564" lon="3.679">
        <ele>137.13</ele>
        <time>2015-01-07T09:29:42Z</time>
      </trkpt>
      <trkpt lat="50.125" lon="3.6784">
        <ele>136.64</ele>
        <time>2015-01-07T09:29:59Z</time>
      </trkpt>
      <trkpt lat="50.12475" lon="3.67814">
        <ele>136.64</ele>
        <time>2015-01-07T09:30:08Z</time>
      </trkpt>
      <trkpt lat="50.12474" lon="3.67815">
        <ele>136.64</ele>
        <time>2015-01-07T09:30:09Z</time>
      </trkpt>
      <trkpt lat="50.12474" lon="3.67818">
        <ele>136.64</ele>
        <time>2015-01-07T09:30:10Z</time>
      </trkpt>
      <trkpt lat="50.12475" lon="3.67822">
        <ele>136.64</ele>
        <time>2015-01-07T09:30:11Z</time>
      </trkpt>
      <trkpt lat="50.12477" lon="3.67824">
        <ele>136.64</ele>
        <time>2015-01-07T09:30:12Z</time>
      </trkpt>
      <trkpt lat="50.12478" lon="3.67828">
        <ele>136.16</ele>
        <time>2015-01-07T09:30:21Z</time>
      </trkpt>
    </trkseg>
  </trk>
</gpx>